<?xml version="1.0" encoding="UTF-8" standalone="no" ?>
<gpx xmlns="http://www.topografix.com/GPX/1/1" xmlns:xsi="http://www.w3.org/2001/XMLSchema-instance" xsi:schemaLocation="http://www.topografix.com/GPX/1/1 http://www.topografix.com/GPX/1/1/gpx.xsd" version="1.1" creator="VisuGPX - https://www.visugpx.com">
  <metadata>
    <name>Petite balade avec Tototte</name>
    <desc><![CDATA[Petite balade avec beaucoup de pas pour une jument de dressage (mais sans peur de l\'extérieur^^), et qui manque un peu de souffle... Avec de l\'entrainement elle sera impeccable pour de grandes balades ! ]]></desc>
  </metadata>
  <trk>
    <name><![CDATA[Etang du Roi avec Tototte 20.08.2014]]></name>
    <trkseg>
      <trkpt lat="48.70552" lon="1.75553">
        <ele>183.39999389648</ele>
        <time>2014-08-20T08:45:06.000Z</time>
      </trkpt>
      <trkpt lat="48.70547" lon="1.75548">
        <ele>183.19999694824</ele>
        <time>2014-08-20T08:45:11.000Z</time>
      </trkpt>
      <trkpt lat="48.70541" lon="1.7554">
        <ele>183</ele>
        <time>2014-08-20T08:45:18.000Z</time>
      </trkpt>
      <trkpt lat="48.70535" lon="1.75537">
        <ele>183</ele>
        <time>2014-08-20T08:45:22.000Z</time>
      </trkpt>
      <trkpt lat="48.70533" lon="1.75536">
        <ele>183</ele>
        <time>2014-08-20T08:45:24.000Z</time>
      </trkpt>
      <trkpt lat="48.70528" lon="1.7553">
        <ele>182.80000305176</ele>
        <time>2014-08-20T08:45:29.000Z</time>
      </trkpt>
      <trkpt lat="48.70525" lon="1.75525">
        <ele>182.60000610352</ele>
        <time>2014-08-20T08:45:33.000Z</time>
      </trkpt>
      <trkpt lat="48.70519" lon="1.7552">
        <ele>182.60000610352</ele>
        <time>2014-08-20T08:45:39.000Z</time>
      </trkpt>
      <trkpt lat="48.70516" lon="1.75517">
        <ele>182.60000610352</ele>
        <time>2014-08-20T08:45:41.000Z</time>
      </trkpt>
      <trkpt lat="48.7051" lon="1.75512">
        <ele>182.60000610352</ele>
        <time>2014-08-20T08:45:46.000Z</time>
      </trkpt>
      <trkpt lat="48.70503" lon="1.75501">
        <ele>182.19999694824</ele>
        <time>2014-08-20T08:45:53.000Z</time>
      </trkpt>
      <trkpt lat="48.70496" lon="1.75496">
        <ele>182.19999694824</ele>
        <time>2014-08-20T08:45:58.000Z</time>
      </trkpt>
      <trkpt lat="48.70491" lon="1.75492">
        <ele>182.19999694824</ele>
        <time>2014-08-20T08:46:02.000Z</time>
      </trkpt>
      <trkpt lat="48.70483" lon="1.75483">
        <ele>182.19999694824</ele>
        <time>2014-08-20T08:46:10.000Z</time>
      </trkpt>
      <trkpt lat="48.70482" lon="1.75482">
        <ele>182.19999694824</ele>
        <time>2014-08-20T08:46:11.000Z</time>
      </trkpt>
      <trkpt lat="48.70478" lon="1.75477">
        <ele>182.19999694824</ele>
        <time>2014-08-20T08:46:15.000Z</time>
      </trkpt>
      <trkpt lat="48.70472" lon="1.7547">
        <ele>182.39999389648</ele>
        <time>2014-08-20T08:46:21.000Z</time>
      </trkpt>
      <trkpt lat="48.70467" lon="1.75466">
        <ele>182.39999389648</ele>
        <time>2014-08-20T08:46:26.000Z</time>
      </trkpt>
      <trkpt lat="48.70465" lon="1.75465">
        <ele>182.39999389648</ele>
        <time>2014-08-20T08:46:27.000Z</time>
      </trkpt>
      <trkpt lat="48.70458" lon="1.7546">
        <ele>182.60000610352</ele>
        <time>2014-08-20T08:46:33.000Z</time>
      </trkpt>
      <trkpt lat="48.70455" lon="1.75457">
        <ele>182.60000610352</ele>
        <time>2014-08-20T08:46:36.000Z</time>
      </trkpt>
      <trkpt lat="48.70452" lon="1.75455">
        <ele>182.60000610352</ele>
        <time>2014-08-20T08:46:39.000Z</time>
      </trkpt>
      <trkpt lat="48.70447" lon="1.75449">
        <ele>182.60000610352</ele>
        <time>2014-08-20T08:46:43.000Z</time>
      </trkpt>
      <trkpt lat="48.70439" lon="1.75446">
        <ele>183</ele>
        <time>2014-08-20T08:46:50.000Z</time>
      </trkpt>
      <trkpt lat="48.70432" lon="1.75437">
        <ele>182.80000305176</ele>
        <time>2014-08-20T08:46:58.000Z</time>
      </trkpt>
      <trkpt lat="48.70429" lon="1.75435">
        <ele>182.60000610352</ele>
        <time>2014-08-20T08:47:00.000Z</time>
      </trkpt>
      <trkpt lat="48.70425" lon="1.75431">
        <ele>182.39999389648</ele>
        <time>2014-08-20T08:47:04.000Z</time>
      </trkpt>
      <trkpt lat="48.70418" lon="1.75428">
        <ele>182.39999389648</ele>
        <time>2014-08-20T08:47:09.000Z</time>
      </trkpt>
      <trkpt lat="48.70413" lon="1.75425">
        <ele>182.19999694824</ele>
        <time>2014-08-20T08:47:14.000Z</time>
      </trkpt>
      <trkpt lat="48.70411" lon="1.75421">
        <ele>182</ele>
        <time>2014-08-20T08:47:19.000Z</time>
      </trkpt>
      <trkpt lat="48.7041" lon="1.7542">
        <ele>182</ele>
        <time>2014-08-20T08:47:22.000Z</time>
      </trkpt>
      <trkpt lat="48.70398" lon="1.7541">
        <ele>181.60000610352</ele>
        <time>2014-08-20T08:47:59.000Z</time>
      </trkpt>
      <trkpt lat="48.70393" lon="1.75406">
        <ele>181.60000610352</ele>
        <time>2014-08-20T08:48:03.000Z</time>
      </trkpt>
      <trkpt lat="48.70388" lon="1.75406">
        <ele>181.39999389648</ele>
        <time>2014-08-20T08:48:08.000Z</time>
      </trkpt>
      <trkpt lat="48.70383" lon="1.75404">
        <ele>181.39999389648</ele>
        <time>2014-08-20T08:48:13.000Z</time>
      </trkpt>
      <trkpt lat="48.70382" lon="1.75404">
        <ele>181.39999389648</ele>
        <time>2014-08-20T08:48:14.000Z</time>
      </trkpt>
      <trkpt lat="48.70377" lon="1.75402">
        <ele>181.19999694824</ele>
        <time>2014-08-20T08:48:17.000Z</time>
      </trkpt>
      <trkpt lat="48.70371" lon="1.75396">
        <ele>181.19999694824</ele>
        <time>2014-08-20T08:48:22.000Z</time>
      </trkpt>
      <trkpt lat="48.70367" lon="1.75395">
        <ele>181.19999694824</ele>
        <time>2014-08-20T08:48:25.000Z</time>
      </trkpt>
      <trkpt lat="48.7036" lon="1.75389">
        <ele>181</ele>
        <time>2014-08-20T08:48:31.000Z</time>
      </trkpt>
      <trkpt lat="48.70355" lon="1.75384">
        <ele>181</ele>
        <time>2014-08-20T08:48:36.000Z</time>
      </trkpt>
      <trkpt lat="48.7035" lon="1.75378">
        <ele>181</ele>
        <time>2014-08-20T08:48:40.000Z</time>
      </trkpt>
      <trkpt lat="48.70345" lon="1.75371">
        <ele>180.80000305176</ele>
        <time>2014-08-20T08:48:45.000Z</time>
      </trkpt>
      <trkpt lat="48.70343" lon="1.75367">
        <ele>180.80000305176</ele>
        <time>2014-08-20T08:48:47.000Z</time>
      </trkpt>
      <trkpt lat="48.70338" lon="1.75364">
        <ele>180.60000610352</ele>
        <time>2014-08-20T08:48:52.000Z</time>
      </trkpt>
      <trkpt lat="48.70335" lon="1.75358">
        <ele>180.60000610352</ele>
        <time>2014-08-20T08:48:57.000Z</time>
      </trkpt>
      <trkpt lat="48.70331" lon="1.75356">
        <ele>180.39999389648</ele>
        <time>2014-08-20T08:49:00.000Z</time>
      </trkpt>
      <trkpt lat="48.70324" lon="1.75355">
        <ele>180.19999694824</ele>
        <time>2014-08-20T08:49:07.000Z</time>
      </trkpt>
      <trkpt lat="48.7032" lon="1.7535">
        <ele>180.19999694824</ele>
        <time>2014-08-20T08:49:12.000Z</time>
      </trkpt>
      <trkpt lat="48.70315" lon="1.75346">
        <ele>180</ele>
        <time>2014-08-20T08:49:17.000Z</time>
      </trkpt>
      <trkpt lat="48.70307" lon="1.75336">
        <ele>179.80000305176</ele>
        <time>2014-08-20T08:49:24.000Z</time>
      </trkpt>
      <trkpt lat="48.70303" lon="1.75328">
        <ele>179.80000305176</ele>
        <time>2014-08-20T08:49:29.000Z</time>
      </trkpt>
      <trkpt lat="48.70303" lon="1.75321">
        <ele>179.80000305176</ele>
        <time>2014-08-20T08:49:33.000Z</time>
      </trkpt>
      <trkpt lat="48.70302" lon="1.7532">
        <ele>179.80000305176</ele>
        <time>2014-08-20T08:49:37.000Z</time>
      </trkpt>
      <trkpt lat="48.70295" lon="1.75302">
        <ele>179.80000305176</ele>
        <time>2014-08-20T08:50:30.000Z</time>
      </trkpt>
      <trkpt lat="48.70292" lon="1.75298">
        <ele>179.80000305176</ele>
        <time>2014-08-20T08:50:34.000Z</time>
      </trkpt>
      <trkpt lat="48.70287" lon="1.75291">
        <ele>179.80000305176</ele>
        <time>2014-08-20T08:50:40.000Z</time>
      </trkpt>
      <trkpt lat="48.70286" lon="1.7529">
        <ele>179.80000305176</ele>
        <time>2014-08-20T08:50:41.000Z</time>
      </trkpt>
      <trkpt lat="48.70279" lon="1.75286">
        <ele>179.60000610352</ele>
        <time>2014-08-20T08:50:47.000Z</time>
      </trkpt>
      <trkpt lat="48.70275" lon="1.75281">
        <ele>179.60000610352</ele>
        <time>2014-08-20T08:50:53.000Z</time>
      </trkpt>
      <trkpt lat="48.70266" lon="1.75271">
        <ele>179.39999389648</ele>
        <time>2014-08-20T08:51:01.000Z</time>
      </trkpt>
      <trkpt lat="48.70264" lon="1.75269">
        <ele>179.39999389648</ele>
        <time>2014-08-20T08:51:06.000Z</time>
      </trkpt>
      <trkpt lat="48.70244" lon="1.75256">
        <ele>178.60000610352</ele>
        <time>2014-08-20T08:51:30.000Z</time>
      </trkpt>
      <trkpt lat="48.70237" lon="1.75249">
        <ele>178.19999694824</ele>
        <time>2014-08-20T08:51:36.000Z</time>
      </trkpt>
      <trkpt lat="48.70231" lon="1.75246">
        <ele>178</ele>
        <time>2014-08-20T08:51:41.000Z</time>
      </trkpt>
      <trkpt lat="48.70227" lon="1.75241">
        <ele>177.80000305176</ele>
        <time>2014-08-20T08:51:46.000Z</time>
      </trkpt>
      <trkpt lat="48.70216" lon="1.75238">
        <ele>177.39999389648</ele>
        <time>2014-08-20T08:51:55.000Z</time>
      </trkpt>
      <trkpt lat="48.70212" lon="1.75238">
        <ele>177.19999694824</ele>
        <time>2014-08-20T08:51:58.000Z</time>
      </trkpt>
      <trkpt lat="48.70201" lon="1.75245">
        <ele>176.60000610352</ele>
        <time>2014-08-20T08:52:06.000Z</time>
      </trkpt>
      <trkpt lat="48.70189" lon="1.75251">
        <ele>176</ele>
        <time>2014-08-20T08:52:14.000Z</time>
      </trkpt>
      <trkpt lat="48.70179" lon="1.75253">
        <ele>176</ele>
        <time>2014-08-20T08:52:22.000Z</time>
      </trkpt>
      <trkpt lat="48.70177" lon="1.75254">
        <ele>175.80000305176</ele>
        <time>2014-08-20T08:52:24.000Z</time>
      </trkpt>
      <trkpt lat="48.70169" lon="1.75259">
        <ele>175.80000305176</ele>
        <time>2014-08-20T08:52:32.000Z</time>
      </trkpt>
      <trkpt lat="48.7016" lon="1.75264">
        <ele>175.60000610352</ele>
        <time>2014-08-20T08:52:40.000Z</time>
      </trkpt>
      <trkpt lat="48.70151" lon="1.75268">
        <ele>175.60000610352</ele>
        <time>2014-08-20T08:52:48.000Z</time>
      </trkpt>
      <trkpt lat="48.70142" lon="1.75274">
        <ele>175.39999389648</ele>
        <time>2014-08-20T08:52:55.000Z</time>
      </trkpt>
      <trkpt lat="48.70134" lon="1.75279">
        <ele>175.19999694824</ele>
        <time>2014-08-20T08:53:02.000Z</time>
      </trkpt>
      <trkpt lat="48.70125" lon="1.75285">
        <ele>174.60000610352</ele>
        <time>2014-08-20T08:53:10.000Z</time>
      </trkpt>
      <trkpt lat="48.70113" lon="1.75289">
        <ele>174.19999694824</ele>
        <time>2014-08-20T08:53:20.000Z</time>
      </trkpt>
      <trkpt lat="48.70113" lon="1.75289">
        <ele>174</ele>
        <time>2014-08-20T08:53:21.000Z</time>
      </trkpt>
      <trkpt lat="48.70105" lon="1.75292">
        <ele>173.80000305176</ele>
        <time>2014-08-20T08:53:30.000Z</time>
      </trkpt>
      <trkpt lat="48.70097" lon="1.75296">
        <ele>173.60000610352</ele>
        <time>2014-08-20T08:53:37.000Z</time>
      </trkpt>
      <trkpt lat="48.70088" lon="1.753">
        <ele>173.39999389648</ele>
        <time>2014-08-20T08:53:43.000Z</time>
      </trkpt>
      <trkpt lat="48.70079" lon="1.75303">
        <ele>173.19999694824</ele>
        <time>2014-08-20T08:53:50.000Z</time>
      </trkpt>
      <trkpt lat="48.70072" lon="1.75305">
        <ele>173</ele>
        <time>2014-08-20T08:53:57.000Z</time>
      </trkpt>
      <trkpt lat="48.70065" lon="1.7531">
        <ele>172.80000305176</ele>
        <time>2014-08-20T08:54:02.000Z</time>
      </trkpt>
      <trkpt lat="48.70058" lon="1.75312">
        <ele>172.60000610352</ele>
        <time>2014-08-20T08:54:08.000Z</time>
      </trkpt>
      <trkpt lat="48.70054" lon="1.75313">
        <ele>172.60000610352</ele>
        <time>2014-08-20T08:54:11.000Z</time>
      </trkpt>
      <trkpt lat="48.70044" lon="1.75317">
        <ele>172.39999389648</ele>
        <time>2014-08-20T08:54:18.000Z</time>
      </trkpt>
      <trkpt lat="48.70033" lon="1.75323">
        <ele>172</ele>
        <time>2014-08-20T08:54:27.000Z</time>
      </trkpt>
      <trkpt lat="48.70024" lon="1.75327">
        <ele>171.60000610352</ele>
        <time>2014-08-20T08:54:33.000Z</time>
      </trkpt>
      <trkpt lat="48.70017" lon="1.7533">
        <ele>171.60000610352</ele>
        <time>2014-08-20T08:54:39.000Z</time>
      </trkpt>
      <trkpt lat="48.70015" lon="1.75331">
        <ele>171.60000610352</ele>
        <time>2014-08-20T08:54:41.000Z</time>
      </trkpt>
      <trkpt lat="48.70004" lon="1.75339">
        <ele>171.39999389648</ele>
        <time>2014-08-20T08:54:49.000Z</time>
      </trkpt>
      <trkpt lat="48.69995" lon="1.75344">
        <ele>171.19999694824</ele>
        <time>2014-08-20T08:54:56.000Z</time>
      </trkpt>
      <trkpt lat="48.69985" lon="1.75348">
        <ele>171.19999694824</ele>
        <time>2014-08-20T08:55:04.000Z</time>
      </trkpt>
      <trkpt lat="48.69976" lon="1.75353">
        <ele>171</ele>
        <time>2014-08-20T08:55:11.000Z</time>
      </trkpt>
      <trkpt lat="48.69972" lon="1.75354">
        <ele>171</ele>
        <time>2014-08-20T08:55:16.000Z</time>
      </trkpt>
      <trkpt lat="48.69965" lon="1.75356">
        <ele>171.19999694824</ele>
        <time>2014-08-20T08:55:23.000Z</time>
      </trkpt>
      <trkpt lat="48.69956" lon="1.75361">
        <ele>171.60000610352</ele>
        <time>2014-08-20T08:55:30.000Z</time>
      </trkpt>
      <trkpt lat="48.69949" lon="1.75365">
        <ele>171.80000305176</ele>
        <time>2014-08-20T08:55:36.000Z</time>
      </trkpt>
      <trkpt lat="48.6994" lon="1.7537">
        <ele>172.19999694824</ele>
        <time>2014-08-20T08:55:43.000Z</time>
      </trkpt>
      <trkpt lat="48.69932" lon="1.75374">
        <ele>172.19999694824</ele>
        <time>2014-08-20T08:55:50.000Z</time>
      </trkpt>
      <trkpt lat="48.69922" lon="1.75379">
        <ele>172.19999694824</ele>
        <time>2014-08-20T08:55:58.000Z</time>
      </trkpt>
      <trkpt lat="48.6991" lon="1.75383">
        <ele>171.80000305176</ele>
        <time>2014-08-20T08:56:06.000Z</time>
      </trkpt>
      <trkpt lat="48.69899" lon="1.7539">
        <ele>171.39999389648</ele>
        <time>2014-08-20T08:56:14.000Z</time>
      </trkpt>
      <trkpt lat="48.69891" lon="1.75393">
        <ele>171.19999694824</ele>
        <time>2014-08-20T08:56:20.000Z</time>
      </trkpt>
      <trkpt lat="48.69883" lon="1.75396">
        <ele>171</ele>
        <time>2014-08-20T08:56:25.000Z</time>
      </trkpt>
      <trkpt lat="48.69871" lon="1.75403">
        <ele>170.39999389648</ele>
        <time>2014-08-20T08:56:34.000Z</time>
      </trkpt>
      <trkpt lat="48.6987" lon="1.75404">
        <ele>170.39999389648</ele>
        <time>2014-08-20T08:56:36.000Z</time>
      </trkpt>
      <trkpt lat="48.69868" lon="1.75404">
        <ele>170.39999389648</ele>
        <time>2014-08-20T08:56:38.000Z</time>
      </trkpt>
      <trkpt lat="48.69862" lon="1.75406">
        <ele>170.19999694824</ele>
        <time>2014-08-20T08:56:43.000Z</time>
      </trkpt>
      <trkpt lat="48.69859" lon="1.75407">
        <ele>170</ele>
        <time>2014-08-20T08:56:46.000Z</time>
      </trkpt>
      <trkpt lat="48.69851" lon="1.75412">
        <ele>169.60000610352</ele>
        <time>2014-08-20T08:56:53.000Z</time>
      </trkpt>
      <trkpt lat="48.69842" lon="1.75414">
        <ele>169.19999694824</ele>
        <time>2014-08-20T08:56:58.000Z</time>
      </trkpt>
      <trkpt lat="48.69835" lon="1.75418">
        <ele>168.80000305176</ele>
        <time>2014-08-20T08:57:06.000Z</time>
      </trkpt>
      <trkpt lat="48.69823" lon="1.75425">
        <ele>168.19999694824</ele>
        <time>2014-08-20T08:57:13.000Z</time>
      </trkpt>
      <trkpt lat="48.69821" lon="1.75426">
        <ele>168</ele>
        <time>2014-08-20T08:57:15.000Z</time>
      </trkpt>
      <trkpt lat="48.69817" lon="1.75426">
        <ele>168</ele>
        <time>2014-08-20T08:57:19.000Z</time>
      </trkpt>
      <trkpt lat="48.69808" lon="1.75434">
        <ele>167.19999694824</ele>
        <time>2014-08-20T08:57:26.000Z</time>
      </trkpt>
      <trkpt lat="48.69801" lon="1.75438">
        <ele>166.80000305176</ele>
        <time>2014-08-20T08:57:32.000Z</time>
      </trkpt>
      <trkpt lat="48.698" lon="1.75438">
        <ele>166.80000305176</ele>
        <time>2014-08-20T08:57:33.000Z</time>
      </trkpt>
      <trkpt lat="48.69796" lon="1.7544">
        <ele>166.60000610352</ele>
        <time>2014-08-20T08:57:36.000Z</time>
      </trkpt>
      <trkpt lat="48.6979" lon="1.7544">
        <ele>166.19999694824</ele>
        <time>2014-08-20T08:57:40.000Z</time>
      </trkpt>
      <trkpt lat="48.69781" lon="1.75442">
        <ele>165.80000305176</ele>
        <time>2014-08-20T08:57:47.000Z</time>
      </trkpt>
      <trkpt lat="48.69774" lon="1.75447">
        <ele>165.19999694824</ele>
        <time>2014-08-20T08:57:52.000Z</time>
      </trkpt>
      <trkpt lat="48.69766" lon="1.75453">
        <ele>164.39999389648</ele>
        <time>2014-08-20T08:57:59.000Z</time>
      </trkpt>
      <trkpt lat="48.69764" lon="1.75455">
        <ele>164.19999694824</ele>
        <time>2014-08-20T08:58:01.000Z</time>
      </trkpt>
      <trkpt lat="48.69753" lon="1.75462">
        <ele>163.39999389648</ele>
        <time>2014-08-20T08:58:09.000Z</time>
      </trkpt>
      <trkpt lat="48.69743" lon="1.75466">
        <ele>162.80000305176</ele>
        <time>2014-08-20T08:58:17.000Z</time>
      </trkpt>
      <trkpt lat="48.69733" lon="1.7547">
        <ele>162</ele>
        <time>2014-08-20T08:58:24.000Z</time>
      </trkpt>
      <trkpt lat="48.69723" lon="1.75475">
        <ele>161.39999389648</ele>
        <time>2014-08-20T08:58:31.000Z</time>
      </trkpt>
      <trkpt lat="48.69713" lon="1.75479">
        <ele>160.60000610352</ele>
        <time>2014-08-20T08:58:39.000Z</time>
      </trkpt>
      <trkpt lat="48.69702" lon="1.75484">
        <ele>160</ele>
        <time>2014-08-20T08:58:49.000Z</time>
      </trkpt>
      <trkpt lat="48.69695" lon="1.75487">
        <ele>159.39999389648</ele>
        <time>2014-08-20T08:58:55.000Z</time>
      </trkpt>
      <trkpt lat="48.69683" lon="1.75491">
        <ele>158.80000305176</ele>
        <time>2014-08-20T08:59:04.000Z</time>
      </trkpt>
      <trkpt lat="48.69673" lon="1.75495">
        <ele>158.39999389648</ele>
        <time>2014-08-20T08:59:13.000Z</time>
      </trkpt>
      <trkpt lat="48.69667" lon="1.75499">
        <ele>158</ele>
        <time>2014-08-20T08:59:20.000Z</time>
      </trkpt>
      <trkpt lat="48.69662" lon="1.755">
        <ele>157.80000305176</ele>
        <time>2014-08-20T08:59:26.000Z</time>
      </trkpt>
      <trkpt lat="48.69653" lon="1.75507">
        <ele>157.39999389648</ele>
        <time>2014-08-20T08:59:33.000Z</time>
      </trkpt>
      <trkpt lat="48.69647" lon="1.7551">
        <ele>157</ele>
        <time>2014-08-20T08:59:38.000Z</time>
      </trkpt>
      <trkpt lat="48.69637" lon="1.75514">
        <ele>156.60000610352</ele>
        <time>2014-08-20T08:59:45.000Z</time>
      </trkpt>
      <trkpt lat="48.69632" lon="1.75515">
        <ele>156.39999389648</ele>
        <time>2014-08-20T08:59:50.000Z</time>
      </trkpt>
      <trkpt lat="48.69625" lon="1.7552">
        <ele>156.19999694824</ele>
        <time>2014-08-20T08:59:55.000Z</time>
      </trkpt>
      <trkpt lat="48.69616" lon="1.75523">
        <ele>156.19999694824</ele>
        <time>2014-08-20T09:00:01.000Z</time>
      </trkpt>
      <trkpt lat="48.69608" lon="1.75527">
        <ele>156</ele>
        <time>2014-08-20T09:00:07.000Z</time>
      </trkpt>
      <trkpt lat="48.69596" lon="1.75532">
        <ele>155.80000305176</ele>
        <time>2014-08-20T09:00:16.000Z</time>
      </trkpt>
      <trkpt lat="48.69589" lon="1.75534">
        <ele>155.60000610352</ele>
        <time>2014-08-20T09:00:22.000Z</time>
      </trkpt>
      <trkpt lat="48.69586" lon="1.75537">
        <ele>155.60000610352</ele>
        <time>2014-08-20T09:00:25.000Z</time>
      </trkpt>
      <trkpt lat="48.69582" lon="1.75538">
        <ele>155.39999389648</ele>
        <time>2014-08-20T09:00:29.000Z</time>
      </trkpt>
      <trkpt lat="48.69577" lon="1.75539">
        <ele>155.39999389648</ele>
        <time>2014-08-20T09:00:32.000Z</time>
      </trkpt>
      <trkpt lat="48.69574" lon="1.75541">
        <ele>155.39999389648</ele>
        <time>2014-08-20T09:00:34.000Z</time>
      </trkpt>
      <trkpt lat="48.69566" lon="1.75539">
        <ele>155.19999694824</ele>
        <time>2014-08-20T09:00:40.000Z</time>
      </trkpt>
      <trkpt lat="48.6956" lon="1.75519">
        <ele>155</ele>
        <time>2014-08-20T09:00:50.000Z</time>
      </trkpt>
      <trkpt lat="48.69556" lon="1.755">
        <ele>154.80000305176</ele>
        <time>2014-08-20T09:00:58.000Z</time>
      </trkpt>
      <trkpt lat="48.6955" lon="1.75472">
        <ele>154.80000305176</ele>
        <time>2014-08-20T09:01:05.000Z</time>
      </trkpt>
      <trkpt lat="48.69544" lon="1.75451">
        <ele>154.60000610352</ele>
        <time>2014-08-20T09:01:10.000Z</time>
      </trkpt>
      <trkpt lat="48.69537" lon="1.75425">
        <ele>154.39999389648</ele>
        <time>2014-08-20T09:01:16.000Z</time>
      </trkpt>
      <trkpt lat="48.69532" lon="1.75402">
        <ele>154.60000610352</ele>
        <time>2014-08-20T09:01:22.000Z</time>
      </trkpt>
      <trkpt lat="48.69523" lon="1.75376">
        <ele>155.19999694824</ele>
        <time>2014-08-20T09:01:28.000Z</time>
      </trkpt>
      <trkpt lat="48.69515" lon="1.75348">
        <ele>155.80000305176</ele>
        <time>2014-08-20T09:01:34.000Z</time>
      </trkpt>
      <trkpt lat="48.69507" lon="1.75321">
        <ele>156.60000610352</ele>
        <time>2014-08-20T09:01:40.000Z</time>
      </trkpt>
      <trkpt lat="48.695" lon="1.75295">
        <ele>158</ele>
        <time>2014-08-20T09:01:46.000Z</time>
      </trkpt>
      <trkpt lat="48.69493" lon="1.75269">
        <ele>159.19999694824</ele>
        <time>2014-08-20T09:01:52.000Z</time>
      </trkpt>
      <trkpt lat="48.69485" lon="1.75238">
        <ele>160.60000610352</ele>
        <time>2014-08-20T09:02:00.000Z</time>
      </trkpt>
      <trkpt lat="48.69479" lon="1.7522">
        <ele>161.60000610352</ele>
        <time>2014-08-20T09:02:05.000Z</time>
      </trkpt>
      <trkpt lat="48.69474" lon="1.75199">
        <ele>162.80000305176</ele>
        <time>2014-08-20T09:02:10.000Z</time>
      </trkpt>
      <trkpt lat="48.69463" lon="1.75162">
        <ele>164.39999389648</ele>
        <time>2014-08-20T09:02:18.000Z</time>
      </trkpt>
      <trkpt lat="48.69458" lon="1.75135">
        <ele>165.39999389648</ele>
        <time>2014-08-20T09:02:24.000Z</time>
      </trkpt>
      <trkpt lat="48.69451" lon="1.7511">
        <ele>166.39999389648</ele>
        <time>2014-08-20T09:02:30.000Z</time>
      </trkpt>
      <trkpt lat="48.69445" lon="1.75088">
        <ele>167.19999694824</ele>
        <time>2014-08-20T09:02:36.000Z</time>
      </trkpt>
      <trkpt lat="48.69444" lon="1.75085">
        <ele>167.39999389648</ele>
        <time>2014-08-20T09:02:37.000Z</time>
      </trkpt>
      <trkpt lat="48.69443" lon="1.75081">
        <ele>167.60000610352</ele>
        <time>2014-08-20T09:02:39.000Z</time>
      </trkpt>
      <trkpt lat="48.6944" lon="1.75066">
        <ele>168</ele>
        <time>2014-08-20T09:02:47.000Z</time>
      </trkpt>
      <trkpt lat="48.69439" lon="1.75057">
        <ele>168</ele>
        <time>2014-08-20T09:02:52.000Z</time>
      </trkpt>
      <trkpt lat="48.69436" lon="1.75044">
        <ele>168</ele>
        <time>2014-08-20T09:02:58.000Z</time>
      </trkpt>
      <trkpt lat="48.69433" lon="1.75033">
        <ele>167.80000305176</ele>
        <time>2014-08-20T09:03:04.000Z</time>
      </trkpt>
      <trkpt lat="48.6943" lon="1.75024">
        <ele>167.80000305176</ele>
        <time>2014-08-20T09:03:09.000Z</time>
      </trkpt>
      <trkpt lat="48.69427" lon="1.7501">
        <ele>167.60000610352</ele>
        <time>2014-08-20T09:03:17.000Z</time>
      </trkpt>
      <trkpt lat="48.69424" lon="1.74998">
        <ele>167.60000610352</ele>
        <time>2014-08-20T09:03:24.000Z</time>
      </trkpt>
      <trkpt lat="48.6942" lon="1.74982">
        <ele>167.19999694824</ele>
        <time>2014-08-20T09:03:31.000Z</time>
      </trkpt>
      <trkpt lat="48.69417" lon="1.74968">
        <ele>166.39999389648</ele>
        <time>2014-08-20T09:03:38.000Z</time>
      </trkpt>
      <trkpt lat="48.69413" lon="1.74956">
        <ele>165.80000305176</ele>
        <time>2014-08-20T09:03:45.000Z</time>
      </trkpt>
      <trkpt lat="48.6941" lon="1.74944">
        <ele>165.19999694824</ele>
        <time>2014-08-20T09:03:51.000Z</time>
      </trkpt>
      <trkpt lat="48.69407" lon="1.74935">
        <ele>164.60000610352</ele>
        <time>2014-08-20T09:03:56.000Z</time>
      </trkpt>
      <trkpt lat="48.69405" lon="1.74926">
        <ele>164.39999389648</ele>
        <time>2014-08-20T09:04:00.000Z</time>
      </trkpt>
      <trkpt lat="48.69401" lon="1.74917">
        <ele>163.80000305176</ele>
        <time>2014-08-20T09:04:08.000Z</time>
      </trkpt>
      <trkpt lat="48.69398" lon="1.74911">
        <ele>163.39999389648</ele>
        <time>2014-08-20T09:04:15.000Z</time>
      </trkpt>
      <trkpt lat="48.69396" lon="1.74907">
        <ele>163.19999694824</ele>
        <time>2014-08-20T09:04:20.000Z</time>
      </trkpt>
      <trkpt lat="48.69395" lon="1.74901">
        <ele>163</ele>
        <time>2014-08-20T09:04:24.000Z</time>
      </trkpt>
      <trkpt lat="48.69392" lon="1.74893">
        <ele>163</ele>
        <time>2014-08-20T09:04:30.000Z</time>
      </trkpt>
      <trkpt lat="48.69392" lon="1.74883">
        <ele>163</ele>
        <time>2014-08-20T09:04:35.000Z</time>
      </trkpt>
      <trkpt lat="48.69387" lon="1.74869">
        <ele>163</ele>
        <time>2014-08-20T09:04:42.000Z</time>
      </trkpt>
      <trkpt lat="48.69383" lon="1.74856">
        <ele>163</ele>
        <time>2014-08-20T09:04:48.000Z</time>
      </trkpt>
      <trkpt lat="48.6938" lon="1.74845">
        <ele>162.80000305176</ele>
        <time>2014-08-20T09:04:53.000Z</time>
      </trkpt>
      <trkpt lat="48.69378" lon="1.74827">
        <ele>162.19999694824</ele>
        <time>2014-08-20T09:05:02.000Z</time>
      </trkpt>
      <trkpt lat="48.69377" lon="1.74815">
        <ele>162.39999389648</ele>
        <time>2014-08-20T09:05:09.000Z</time>
      </trkpt>
      <trkpt lat="48.69375" lon="1.74812">
        <ele>162.60000610352</ele>
        <time>2014-08-20T09:05:14.000Z</time>
      </trkpt>
      <trkpt lat="48.69373" lon="1.74802">
        <ele>163.19999694824</ele>
        <time>2014-08-20T09:05:19.000Z</time>
      </trkpt>
      <trkpt lat="48.69369" lon="1.74785">
        <ele>164.19999694824</ele>
        <time>2014-08-20T09:05:24.000Z</time>
      </trkpt>
      <trkpt lat="48.69366" lon="1.74777">
        <ele>164.60000610352</ele>
        <time>2014-08-20T09:05:28.000Z</time>
      </trkpt>
      <trkpt lat="48.69364" lon="1.74767">
        <ele>165.19999694824</ele>
        <time>2014-08-20T09:05:34.000Z</time>
      </trkpt>
      <trkpt lat="48.69361" lon="1.74759">
        <ele>165.80000305176</ele>
        <time>2014-08-20T09:05:39.000Z</time>
      </trkpt>
      <trkpt lat="48.69361" lon="1.74757">
        <ele>165.80000305176</ele>
        <time>2014-08-20T09:05:40.000Z</time>
      </trkpt>
      <trkpt lat="48.6936" lon="1.74749">
        <ele>166.39999389648</ele>
        <time>2014-08-20T09:05:44.000Z</time>
      </trkpt>
      <trkpt lat="48.69358" lon="1.74737">
        <ele>166.80000305176</ele>
        <time>2014-08-20T09:05:50.000Z</time>
      </trkpt>
      <trkpt lat="48.69353" lon="1.74722">
        <ele>167</ele>
        <time>2014-08-20T09:05:59.000Z</time>
      </trkpt>
      <trkpt lat="48.69351" lon="1.74713">
        <ele>167</ele>
        <time>2014-08-20T09:06:04.000Z</time>
      </trkpt>
      <trkpt lat="48.69348" lon="1.74704">
        <ele>167</ele>
        <time>2014-08-20T09:06:09.000Z</time>
      </trkpt>
      <trkpt lat="48.69345" lon="1.74691">
        <ele>167</ele>
        <time>2014-08-20T09:06:16.000Z</time>
      </trkpt>
      <trkpt lat="48.69345" lon="1.7469">
        <ele>167.19999694824</ele>
        <time>2014-08-20T09:06:17.000Z</time>
      </trkpt>
      <trkpt lat="48.69339" lon="1.7467">
        <ele>167.19999694824</ele>
        <time>2014-08-20T09:06:28.000Z</time>
      </trkpt>
      <trkpt lat="48.69335" lon="1.74653">
        <ele>167.19999694824</ele>
        <time>2014-08-20T09:06:37.000Z</time>
      </trkpt>
      <trkpt lat="48.69335" lon="1.74648">
        <ele>167.19999694824</ele>
        <time>2014-08-20T09:06:39.000Z</time>
      </trkpt>
      <trkpt lat="48.69333" lon="1.74641">
        <ele>167.39999389648</ele>
        <time>2014-08-20T09:06:43.000Z</time>
      </trkpt>
      <trkpt lat="48.6933" lon="1.74625">
        <ele>167.60000610352</ele>
        <time>2014-08-20T09:06:50.000Z</time>
      </trkpt>
      <trkpt lat="48.69325" lon="1.74607">
        <ele>167.80000305176</ele>
        <time>2014-08-20T09:06:59.000Z</time>
      </trkpt>
      <trkpt lat="48.6932" lon="1.74597">
        <ele>168</ele>
        <time>2014-08-20T09:07:05.000Z</time>
      </trkpt>
      <trkpt lat="48.69312" lon="1.74584">
        <ele>168.39999389648</ele>
        <time>2014-08-20T09:07:14.000Z</time>
      </trkpt>
      <trkpt lat="48.6931" lon="1.74574">
        <ele>168.39999389648</ele>
        <time>2014-08-20T09:07:19.000Z</time>
      </trkpt>
      <trkpt lat="48.69309" lon="1.74573">
        <ele>168.60000610352</ele>
        <time>2014-08-20T09:07:20.000Z</time>
      </trkpt>
      <trkpt lat="48.693" lon="1.74561">
        <ele>168.60000610352</ele>
        <time>2014-08-20T09:07:30.000Z</time>
      </trkpt>
      <trkpt lat="48.69292" lon="1.74553">
        <ele>168.80000305176</ele>
        <time>2014-08-20T09:07:39.000Z</time>
      </trkpt>
      <trkpt lat="48.69281" lon="1.74545">
        <ele>168.80000305176</ele>
        <time>2014-08-20T09:07:47.000Z</time>
      </trkpt>
      <trkpt lat="48.6927" lon="1.74534">
        <ele>169</ele>
        <time>2014-08-20T09:07:56.000Z</time>
      </trkpt>
      <trkpt lat="48.6926" lon="1.74522">
        <ele>168.60000610352</ele>
        <time>2014-08-20T09:08:05.000Z</time>
      </trkpt>
      <trkpt lat="48.69249" lon="1.7451">
        <ele>168.19999694824</ele>
        <time>2014-08-20T09:08:14.000Z</time>
      </trkpt>
      <trkpt lat="48.69243" lon="1.74505">
        <ele>168</ele>
        <time>2014-08-20T09:08:20.000Z</time>
      </trkpt>
      <trkpt lat="48.69233" lon="1.74496">
        <ele>167.60000610352</ele>
        <time>2014-08-20T09:08:28.000Z</time>
      </trkpt>
      <trkpt lat="48.69224" lon="1.74486">
        <ele>167.39999389648</ele>
        <time>2014-08-20T09:08:36.000Z</time>
      </trkpt>
      <trkpt lat="48.69213" lon="1.74474">
        <ele>166.39999389648</ele>
        <time>2014-08-20T09:08:46.000Z</time>
      </trkpt>
      <trkpt lat="48.69206" lon="1.74464">
        <ele>165.80000305176</ele>
        <time>2014-08-20T09:08:53.000Z</time>
      </trkpt>
      <trkpt lat="48.69197" lon="1.74457">
        <ele>165.19999694824</ele>
        <time>2014-08-20T09:09:00.000Z</time>
      </trkpt>
      <trkpt lat="48.69191" lon="1.74449">
        <ele>164.80000305176</ele>
        <time>2014-08-20T09:09:06.000Z</time>
      </trkpt>
      <trkpt lat="48.69178" lon="1.74438">
        <ele>164</ele>
        <time>2014-08-20T09:09:16.000Z</time>
      </trkpt>
      <trkpt lat="48.69178" lon="1.74436">
        <ele>164</ele>
        <time>2014-08-20T09:09:17.000Z</time>
      </trkpt>
      <trkpt lat="48.69171" lon="1.74429">
        <ele>163.60000610352</ele>
        <time>2014-08-20T09:09:23.000Z</time>
      </trkpt>
      <trkpt lat="48.6917" lon="1.74428">
        <ele>163.39999389648</ele>
        <time>2014-08-20T09:09:24.000Z</time>
      </trkpt>
      <trkpt lat="48.6916" lon="1.74417">
        <ele>162.80000305176</ele>
        <time>2014-08-20T09:09:32.000Z</time>
      </trkpt>
      <trkpt lat="48.69157" lon="1.74416">
        <ele>162.80000305176</ele>
        <time>2014-08-20T09:09:34.000Z</time>
      </trkpt>
      <trkpt lat="48.69149" lon="1.74409">
        <ele>162.19999694824</ele>
        <time>2014-08-20T09:09:41.000Z</time>
      </trkpt>
      <trkpt lat="48.69148" lon="1.74408">
        <ele>162.19999694824</ele>
        <time>2014-08-20T09:09:42.000Z</time>
      </trkpt>
      <trkpt lat="48.69137" lon="1.74398">
        <ele>161.80000305176</ele>
        <time>2014-08-20T09:09:50.000Z</time>
      </trkpt>
      <trkpt lat="48.69132" lon="1.7439">
        <ele>161.60000610352</ele>
        <time>2014-08-20T09:09:56.000Z</time>
      </trkpt>
      <trkpt lat="48.69126" lon="1.74384">
        <ele>161.60000610352</ele>
        <time>2014-08-20T09:10:01.000Z</time>
      </trkpt>
      <trkpt lat="48.69119" lon="1.74378">
        <ele>161.39999389648</ele>
        <time>2014-08-20T09:10:06.000Z</time>
      </trkpt>
      <trkpt lat="48.69113" lon="1.74373">
        <ele>161.19999694824</ele>
        <time>2014-08-20T09:10:11.000Z</time>
      </trkpt>
      <trkpt lat="48.69104" lon="1.74365">
        <ele>161</ele>
        <time>2014-08-20T09:10:18.000Z</time>
      </trkpt>
      <trkpt lat="48.69097" lon="1.74357">
        <ele>161</ele>
        <time>2014-08-20T09:10:24.000Z</time>
      </trkpt>
      <trkpt lat="48.6909" lon="1.74349">
        <ele>161</ele>
        <time>2014-08-20T09:10:30.000Z</time>
      </trkpt>
      <trkpt lat="48.69083" lon="1.74342">
        <ele>161</ele>
        <time>2014-08-20T09:10:36.000Z</time>
      </trkpt>
      <trkpt lat="48.69076" lon="1.74337">
        <ele>161</ele>
        <time>2014-08-20T09:10:41.000Z</time>
      </trkpt>
      <trkpt lat="48.69067" lon="1.74328">
        <ele>161</ele>
        <time>2014-08-20T09:10:49.000Z</time>
      </trkpt>
      <trkpt lat="48.69059" lon="1.74318">
        <ele>161.19999694824</ele>
        <time>2014-08-20T09:10:57.000Z</time>
      </trkpt>
      <trkpt lat="48.69052" lon="1.74312">
        <ele>161.39999389648</ele>
        <time>2014-08-20T09:11:04.000Z</time>
      </trkpt>
      <trkpt lat="48.69048" lon="1.74309">
        <ele>161.60000610352</ele>
        <time>2014-08-20T09:11:07.000Z</time>
      </trkpt>
      <trkpt lat="48.69037" lon="1.74299">
        <ele>162</ele>
        <time>2014-08-20T09:11:16.000Z</time>
      </trkpt>
      <trkpt lat="48.69024" lon="1.74286">
        <ele>162.60000610352</ele>
        <time>2014-08-20T09:11:28.000Z</time>
      </trkpt>
      <trkpt lat="48.69016" lon="1.74275">
        <ele>162.80000305176</ele>
        <time>2014-08-20T09:11:36.000Z</time>
      </trkpt>
      <trkpt lat="48.69008" lon="1.74267">
        <ele>162.60000610352</ele>
        <time>2014-08-20T09:11:43.000Z</time>
      </trkpt>
      <trkpt lat="48.69" lon="1.74259">
        <ele>162.39999389648</ele>
        <time>2014-08-20T09:11:50.000Z</time>
      </trkpt>
      <trkpt lat="48.68996" lon="1.74255">
        <ele>162.19999694824</ele>
        <time>2014-08-20T09:11:54.000Z</time>
      </trkpt>
      <trkpt lat="48.68988" lon="1.74249">
        <ele>161.80000305176</ele>
        <time>2014-08-20T09:12:01.000Z</time>
      </trkpt>
      <trkpt lat="48.68982" lon="1.74243">
        <ele>161.60000610352</ele>
        <time>2014-08-20T09:12:07.000Z</time>
      </trkpt>
      <trkpt lat="48.68974" lon="1.74233">
        <ele>161.39999389648</ele>
        <time>2014-08-20T09:12:14.000Z</time>
      </trkpt>
      <trkpt lat="48.68968" lon="1.74227">
        <ele>161.19999694824</ele>
        <time>2014-08-20T09:12:19.000Z</time>
      </trkpt>
      <trkpt lat="48.6896" lon="1.74218">
        <ele>160.80000305176</ele>
        <time>2014-08-20T09:12:26.000Z</time>
      </trkpt>
      <trkpt lat="48.68952" lon="1.74211">
        <ele>160.60000610352</ele>
        <time>2014-08-20T09:12:32.000Z</time>
      </trkpt>
      <trkpt lat="48.68944" lon="1.74205">
        <ele>160.19999694824</ele>
        <time>2014-08-20T09:12:39.000Z</time>
      </trkpt>
      <trkpt lat="48.68934" lon="1.74203">
        <ele>159.60000610352</ele>
        <time>2014-08-20T09:12:44.000Z</time>
      </trkpt>
      <trkpt lat="48.68927" lon="1.74194">
        <ele>159.60000610352</ele>
        <time>2014-08-20T09:12:51.000Z</time>
      </trkpt>
      <trkpt lat="48.68925" lon="1.74192">
        <ele>159.39999389648</ele>
        <time>2014-08-20T09:12:53.000Z</time>
      </trkpt>
      <trkpt lat="48.68918" lon="1.74189">
        <ele>159.19999694824</ele>
        <time>2014-08-20T09:12:58.000Z</time>
      </trkpt>
      <trkpt lat="48.68915" lon="1.74185">
        <ele>159.19999694824</ele>
        <time>2014-08-20T09:13:01.000Z</time>
      </trkpt>
      <trkpt lat="48.68912" lon="1.74178">
        <ele>159.39999389648</ele>
        <time>2014-08-20T09:13:05.000Z</time>
      </trkpt>
      <trkpt lat="48.68908" lon="1.74173">
        <ele>159.39999389648</ele>
        <time>2014-08-20T09:13:09.000Z</time>
      </trkpt>
      <trkpt lat="48.68899" lon="1.74165">
        <ele>159.19999694824</ele>
        <time>2014-08-20T09:13:17.000Z</time>
      </trkpt>
      <trkpt lat="48.68892" lon="1.74156">
        <ele>159.19999694824</ele>
        <time>2014-08-20T09:13:24.000Z</time>
      </trkpt>
      <trkpt lat="48.68886" lon="1.74144">
        <ele>159.19999694824</ele>
        <time>2014-08-20T09:13:32.000Z</time>
      </trkpt>
      <trkpt lat="48.68882" lon="1.74139">
        <ele>159</ele>
        <time>2014-08-20T09:13:36.000Z</time>
      </trkpt>
      <trkpt lat="48.68876" lon="1.74131">
        <ele>159</ele>
        <time>2014-08-20T09:13:43.000Z</time>
      </trkpt>
      <trkpt lat="48.68866" lon="1.74122">
        <ele>158.60000610352</ele>
        <time>2014-08-20T09:13:51.000Z</time>
      </trkpt>
      <trkpt lat="48.6886" lon="1.74115">
        <ele>158.39999389648</ele>
        <time>2014-08-20T09:13:57.000Z</time>
      </trkpt>
      <trkpt lat="48.68861" lon="1.74111">
        <ele>158.60000610352</ele>
        <time>2014-08-20T09:14:02.000Z</time>
      </trkpt>
      <trkpt lat="48.68862" lon="1.74103">
        <ele>158.80000305176</ele>
        <time>2014-08-20T09:14:08.000Z</time>
      </trkpt>
      <trkpt lat="48.68862" lon="1.74096">
        <ele>159</ele>
        <time>2014-08-20T09:14:14.000Z</time>
      </trkpt>
      <trkpt lat="48.68863" lon="1.74091">
        <ele>159</ele>
        <time>2014-08-20T09:14:18.000Z</time>
      </trkpt>
      <trkpt lat="48.6886" lon="1.74086">
        <ele>159</ele>
        <time>2014-08-20T09:14:23.000Z</time>
      </trkpt>
      <trkpt lat="48.68854" lon="1.74081">
        <ele>158.80000305176</ele>
        <time>2014-08-20T09:14:30.000Z</time>
      </trkpt>
      <trkpt lat="48.68845" lon="1.74081">
        <ele>158.60000610352</ele>
        <time>2014-08-20T09:14:38.000Z</time>
      </trkpt>
      <trkpt lat="48.68841" lon="1.7408">
        <ele>158.60000610352</ele>
        <time>2014-08-20T09:14:41.000Z</time>
      </trkpt>
      <trkpt lat="48.68839" lon="1.74081">
        <ele>158.60000610352</ele>
        <time>2014-08-20T09:14:45.000Z</time>
      </trkpt>
      <trkpt lat="48.68836" lon="1.74084">
        <ele>158.39999389648</ele>
        <time>2014-08-20T09:14:49.000Z</time>
      </trkpt>
      <trkpt lat="48.68835" lon="1.74085">
        <ele>158.39999389648</ele>
        <time>2014-08-20T09:14:50.000Z</time>
      </trkpt>
      <trkpt lat="48.68832" lon="1.74086">
        <ele>158.39999389648</ele>
        <time>2014-08-20T09:14:51.000Z</time>
      </trkpt>
      <trkpt lat="48.68827" lon="1.74085">
        <ele>158.39999389648</ele>
        <time>2014-08-20T09:14:55.000Z</time>
      </trkpt>
      <trkpt lat="48.6882" lon="1.74078">
        <ele>158.39999389648</ele>
        <time>2014-08-20T09:15:02.000Z</time>
      </trkpt>
      <trkpt lat="48.68818" lon="1.74074">
        <ele>158.39999389648</ele>
        <time>2014-08-20T09:15:04.000Z</time>
      </trkpt>
      <trkpt lat="48.68815" lon="1.74069">
        <ele>158.60000610352</ele>
        <time>2014-08-20T09:15:08.000Z</time>
      </trkpt>
      <trkpt lat="48.68813" lon="1.74067">
        <ele>158.80000305176</ele>
        <time>2014-08-20T09:15:10.000Z</time>
      </trkpt>
      <trkpt lat="48.68803" lon="1.74061">
        <ele>159.19999694824</ele>
        <time>2014-08-20T09:15:18.000Z</time>
      </trkpt>
      <trkpt lat="48.68797" lon="1.74053">
        <ele>159.60000610352</ele>
        <time>2014-08-20T09:15:24.000Z</time>
      </trkpt>
      <trkpt lat="48.68796" lon="1.74053">
        <ele>159.60000610352</ele>
        <time>2014-08-20T09:15:25.000Z</time>
      </trkpt>
      <trkpt lat="48.6879" lon="1.74059">
        <ele>159</ele>
        <time>2014-08-20T09:15:32.000Z</time>
      </trkpt>
      <trkpt lat="48.68786" lon="1.74064">
        <ele>158.60000610352</ele>
        <time>2014-08-20T09:15:36.000Z</time>
      </trkpt>
      <trkpt lat="48.68776" lon="1.7408">
        <ele>157.80000305176</ele>
        <time>2014-08-20T09:15:47.000Z</time>
      </trkpt>
      <trkpt lat="48.68768" lon="1.74092">
        <ele>157</ele>
        <time>2014-08-20T09:15:55.000Z</time>
      </trkpt>
      <trkpt lat="48.68761" lon="1.74104">
        <ele>157</ele>
        <time>2014-08-20T09:16:01.000Z</time>
      </trkpt>
      <trkpt lat="48.68754" lon="1.74115">
        <ele>156.80000305176</ele>
        <time>2014-08-20T09:16:08.000Z</time>
      </trkpt>
      <trkpt lat="48.68753" lon="1.74116">
        <ele>156.80000305176</ele>
        <time>2014-08-20T09:16:09.000Z</time>
      </trkpt>
      <trkpt lat="48.68749" lon="1.74126">
        <ele>156.60000610352</ele>
        <time>2014-08-20T09:16:15.000Z</time>
      </trkpt>
      <trkpt lat="48.68747" lon="1.7413">
        <ele>156.60000610352</ele>
        <time>2014-08-20T09:16:17.000Z</time>
      </trkpt>
      <trkpt lat="48.6874" lon="1.7414">
        <ele>156.19999694824</ele>
        <time>2014-08-20T09:16:23.000Z</time>
      </trkpt>
      <trkpt lat="48.68732" lon="1.74151">
        <ele>156</ele>
        <time>2014-08-20T09:16:30.000Z</time>
      </trkpt>
      <trkpt lat="48.68725" lon="1.74161">
        <ele>156.39999389648</ele>
        <time>2014-08-20T09:16:37.000Z</time>
      </trkpt>
      <trkpt lat="48.68719" lon="1.74169">
        <ele>157</ele>
        <time>2014-08-20T09:16:42.000Z</time>
      </trkpt>
      <trkpt lat="48.68715" lon="1.74177">
        <ele>157.39999389648</ele>
        <time>2014-08-20T09:16:48.000Z</time>
      </trkpt>
      <trkpt lat="48.6871" lon="1.74187">
        <ele>157.60000610352</ele>
        <time>2014-08-20T09:16:54.000Z</time>
      </trkpt>
      <trkpt lat="48.68704" lon="1.74195">
        <ele>157.60000610352</ele>
        <time>2014-08-20T09:16:59.000Z</time>
      </trkpt>
      <trkpt lat="48.68704" lon="1.74201">
        <ele>157.39999389648</ele>
        <time>2014-08-20T09:17:04.000Z</time>
      </trkpt>
      <trkpt lat="48.68704" lon="1.74204">
        <ele>157.39999389648</ele>
        <time>2014-08-20T09:17:06.000Z</time>
      </trkpt>
      <trkpt lat="48.68702" lon="1.7421">
        <ele>157.39999389648</ele>
        <time>2014-08-20T09:17:13.000Z</time>
      </trkpt>
      <trkpt lat="48.68703" lon="1.74203">
        <ele>157.39999389648</ele>
        <time>2014-08-20T09:17:19.000Z</time>
      </trkpt>
      <trkpt lat="48.68699" lon="1.74197">
        <ele>157.39999389648</ele>
        <time>2014-08-20T09:17:24.000Z</time>
      </trkpt>
      <trkpt lat="48.6869" lon="1.7419">
        <ele>157.60000610352</ele>
        <time>2014-08-20T09:17:33.000Z</time>
      </trkpt>
      <trkpt lat="48.68688" lon="1.74189">
        <ele>157.60000610352</ele>
        <time>2014-08-20T09:17:34.000Z</time>
      </trkpt>
      <trkpt lat="48.68685" lon="1.74189">
        <ele>157.60000610352</ele>
        <time>2014-08-20T09:17:36.000Z</time>
      </trkpt>
      <trkpt lat="48.68678" lon="1.7419">
        <ele>157.80000305176</ele>
        <time>2014-08-20T09:17:41.000Z</time>
      </trkpt>
      <trkpt lat="48.68676" lon="1.74189">
        <ele>158</ele>
        <time>2014-08-20T09:17:42.000Z</time>
      </trkpt>
      <trkpt lat="48.68664" lon="1.74194">
        <ele>158.39999389648</ele>
        <time>2014-08-20T09:17:48.000Z</time>
      </trkpt>
      <trkpt lat="48.68654" lon="1.74191">
        <ele>158.80000305176</ele>
        <time>2014-08-20T09:17:55.000Z</time>
      </trkpt>
      <trkpt lat="48.68646" lon="1.74186">
        <ele>159</ele>
        <time>2014-08-20T09:18:01.000Z</time>
      </trkpt>
      <trkpt lat="48.68641" lon="1.74182">
        <ele>159.39999389648</ele>
        <time>2014-08-20T09:18:07.000Z</time>
      </trkpt>
      <trkpt lat="48.68636" lon="1.7418">
        <ele>159.60000610352</ele>
        <time>2014-08-20T09:18:11.000Z</time>
      </trkpt>
      <trkpt lat="48.68634" lon="1.74179">
        <ele>159.60000610352</ele>
        <time>2014-08-20T09:18:13.000Z</time>
      </trkpt>
      <trkpt lat="48.68628" lon="1.74176">
        <ele>159.80000305176</ele>
        <time>2014-08-20T09:18:18.000Z</time>
      </trkpt>
      <trkpt lat="48.6862" lon="1.74169">
        <ele>160.19999694824</ele>
        <time>2014-08-20T09:18:24.000Z</time>
      </trkpt>
      <trkpt lat="48.68612" lon="1.74168">
        <ele>160.39999389648</ele>
        <time>2014-08-20T09:18:30.000Z</time>
      </trkpt>
      <trkpt lat="48.68604" lon="1.74165">
        <ele>160.60000610352</ele>
        <time>2014-08-20T09:18:37.000Z</time>
      </trkpt>
      <trkpt lat="48.68596" lon="1.74163">
        <ele>160.39999389648</ele>
        <time>2014-08-20T09:18:43.000Z</time>
      </trkpt>
      <trkpt lat="48.68594" lon="1.74162">
        <ele>160.39999389648</ele>
        <time>2014-08-20T09:18:45.000Z</time>
      </trkpt>
      <trkpt lat="48.68582" lon="1.74157">
        <ele>160.19999694824</ele>
        <time>2014-08-20T09:18:54.000Z</time>
      </trkpt>
      <trkpt lat="48.6858" lon="1.74156">
        <ele>160</ele>
        <time>2014-08-20T09:18:56.000Z</time>
      </trkpt>
      <trkpt lat="48.68574" lon="1.74152">
        <ele>160</ele>
        <time>2014-08-20T09:19:01.000Z</time>
      </trkpt>
      <trkpt lat="48.68567" lon="1.74146">
        <ele>159.80000305176</ele>
        <time>2014-08-20T09:19:08.000Z</time>
      </trkpt>
      <trkpt lat="48.68561" lon="1.74141">
        <ele>159.39999389648</ele>
        <time>2014-08-20T09:19:15.000Z</time>
      </trkpt>
      <trkpt lat="48.68559" lon="1.74139">
        <ele>159.39999389648</ele>
        <time>2014-08-20T09:19:20.000Z</time>
      </trkpt>
      <trkpt lat="48.68553" lon="1.74136">
        <ele>159.19999694824</ele>
        <time>2014-08-20T09:19:26.000Z</time>
      </trkpt>
      <trkpt lat="48.6855" lon="1.74134">
        <ele>159</ele>
        <time>2014-08-20T09:19:30.000Z</time>
      </trkpt>
      <trkpt lat="48.68548" lon="1.74133">
        <ele>159</ele>
        <time>2014-08-20T09:19:31.000Z</time>
      </trkpt>
      <trkpt lat="48.68539" lon="1.74126">
        <ele>158.60000610352</ele>
        <time>2014-08-20T09:19:40.000Z</time>
      </trkpt>
      <trkpt lat="48.6853" lon="1.74123">
        <ele>158.39999389648</ele>
        <time>2014-08-20T09:19:47.000Z</time>
      </trkpt>
      <trkpt lat="48.68528" lon="1.74122">
        <ele>158.19999694824</ele>
        <time>2014-08-20T09:19:50.000Z</time>
      </trkpt>
      <trkpt lat="48.68524" lon="1.74119">
        <ele>158.19999694824</ele>
        <time>2014-08-20T09:19:54.000Z</time>
      </trkpt>
      <trkpt lat="48.68522" lon="1.74122">
        <ele>158</ele>
        <time>2014-08-20T09:19:59.000Z</time>
      </trkpt>
      <trkpt lat="48.68521" lon="1.74135">
        <ele>158</ele>
        <time>2014-08-20T09:20:05.000Z</time>
      </trkpt>
      <trkpt lat="48.68521" lon="1.74148">
        <ele>158</ele>
        <time>2014-08-20T09:20:12.000Z</time>
      </trkpt>
      <trkpt lat="48.68522" lon="1.74149">
        <ele>158</ele>
        <time>2014-08-20T09:20:14.000Z</time>
      </trkpt>
      <trkpt lat="48.6852" lon="1.74166">
        <ele>157.80000305176</ele>
        <time>2014-08-20T09:20:29.000Z</time>
      </trkpt>
      <trkpt lat="48.68519" lon="1.74177">
        <ele>157.39999389648</ele>
        <time>2014-08-20T09:20:34.000Z</time>
      </trkpt>
      <trkpt lat="48.68515" lon="1.74193">
        <ele>157.19999694824</ele>
        <time>2014-08-20T09:20:42.000Z</time>
      </trkpt>
      <trkpt lat="48.68513" lon="1.74205">
        <ele>157</ele>
        <time>2014-08-20T09:20:49.000Z</time>
      </trkpt>
      <trkpt lat="48.68511" lon="1.74215">
        <ele>156.80000305176</ele>
        <time>2014-08-20T09:20:55.000Z</time>
      </trkpt>
      <trkpt lat="48.6851" lon="1.74227">
        <ele>156.60000610352</ele>
        <time>2014-08-20T09:21:00.000Z</time>
      </trkpt>
      <trkpt lat="48.68509" lon="1.74235">
        <ele>156.19999694824</ele>
        <time>2014-08-20T09:21:04.000Z</time>
      </trkpt>
      <trkpt lat="48.68506" lon="1.7425">
        <ele>155.80000305176</ele>
        <time>2014-08-20T09:21:12.000Z</time>
      </trkpt>
      <trkpt lat="48.68505" lon="1.74258">
        <ele>155.60000610352</ele>
        <time>2014-08-20T09:21:15.000Z</time>
      </trkpt>
      <trkpt lat="48.68504" lon="1.74265">
        <ele>155.60000610352</ele>
        <time>2014-08-20T09:21:19.000Z</time>
      </trkpt>
      <trkpt lat="48.68503" lon="1.74274">
        <ele>155.39999389648</ele>
        <time>2014-08-20T09:21:23.000Z</time>
      </trkpt>
      <trkpt lat="48.68502" lon="1.74282">
        <ele>155.19999694824</ele>
        <time>2014-08-20T09:21:27.000Z</time>
      </trkpt>
      <trkpt lat="48.68501" lon="1.74298">
        <ele>154.80000305176</ele>
        <time>2014-08-20T09:21:35.000Z</time>
      </trkpt>
      <trkpt lat="48.68499" lon="1.74309">
        <ele>154.39999389648</ele>
        <time>2014-08-20T09:21:40.000Z</time>
      </trkpt>
      <trkpt lat="48.68494" lon="1.74321">
        <ele>154</ele>
        <time>2014-08-20T09:21:47.000Z</time>
      </trkpt>
      <trkpt lat="48.68493" lon="1.74328">
        <ele>153.60000610352</ele>
        <time>2014-08-20T09:21:52.000Z</time>
      </trkpt>
      <trkpt lat="48.68492" lon="1.74334">
        <ele>153.19999694824</ele>
        <time>2014-08-20T09:21:56.000Z</time>
      </trkpt>
      <trkpt lat="48.68491" lon="1.74349">
        <ele>152.19999694824</ele>
        <time>2014-08-20T09:22:03.000Z</time>
      </trkpt>
      <trkpt lat="48.68488" lon="1.74362">
        <ele>151.60000610352</ele>
        <time>2014-08-20T09:22:08.000Z</time>
      </trkpt>
      <trkpt lat="48.68489" lon="1.74378">
        <ele>150.80000305176</ele>
        <time>2014-08-20T09:22:15.000Z</time>
      </trkpt>
      <trkpt lat="48.68495" lon="1.74392">
        <ele>150.39999389648</ele>
        <time>2014-08-20T09:22:24.000Z</time>
      </trkpt>
      <trkpt lat="48.68503" lon="1.74396">
        <ele>150</ele>
        <time>2014-08-20T09:22:31.000Z</time>
      </trkpt>
      <trkpt lat="48.68508" lon="1.74396">
        <ele>149.60000610352</ele>
        <time>2014-08-20T09:22:35.000Z</time>
      </trkpt>
      <trkpt lat="48.68513" lon="1.74393">
        <ele>149.60000610352</ele>
        <time>2014-08-20T09:22:40.000Z</time>
      </trkpt>
      <trkpt lat="48.68516" lon="1.74392">
        <ele>149.80000305176</ele>
        <time>2014-08-20T09:22:42.000Z</time>
      </trkpt>
      <trkpt lat="48.68521" lon="1.74388">
        <ele>150</ele>
        <time>2014-08-20T09:22:46.000Z</time>
      </trkpt>
      <trkpt lat="48.68527" lon="1.74381">
        <ele>151</ele>
        <time>2014-08-20T09:22:51.000Z</time>
      </trkpt>
      <trkpt lat="48.68532" lon="1.74371">
        <ele>152</ele>
        <time>2014-08-20T09:22:58.000Z</time>
      </trkpt>
      <trkpt lat="48.68534" lon="1.7436">
        <ele>152.80000305176</ele>
        <time>2014-08-20T09:23:05.000Z</time>
      </trkpt>
      <trkpt lat="48.68538" lon="1.74345">
        <ele>154</ele>
        <time>2014-08-20T09:23:12.000Z</time>
      </trkpt>
      <trkpt lat="48.68539" lon="1.74343">
        <ele>154.19999694824</ele>
        <time>2014-08-20T09:23:13.000Z</time>
      </trkpt>
      <trkpt lat="48.68543" lon="1.74332">
        <ele>154.39999389648</ele>
        <time>2014-08-20T09:23:19.000Z</time>
      </trkpt>
      <trkpt lat="48.68543" lon="1.74331">
        <ele>154.39999389648</ele>
        <time>2014-08-20T09:23:20.000Z</time>
      </trkpt>
      <trkpt lat="48.6855" lon="1.74315">
        <ele>154.60000610352</ele>
        <time>2014-08-20T09:23:29.000Z</time>
      </trkpt>
      <trkpt lat="48.68552" lon="1.74308">
        <ele>154.60000610352</ele>
        <time>2014-08-20T09:23:32.000Z</time>
      </trkpt>
      <trkpt lat="48.68556" lon="1.74298">
        <ele>155</ele>
        <time>2014-08-20T09:23:38.000Z</time>
      </trkpt>
      <trkpt lat="48.68562" lon="1.74284">
        <ele>155.39999389648</ele>
        <time>2014-08-20T09:23:46.000Z</time>
      </trkpt>
      <trkpt lat="48.68567" lon="1.74274">
        <ele>155.80000305176</ele>
        <time>2014-08-20T09:23:52.000Z</time>
      </trkpt>
      <trkpt lat="48.68568" lon="1.74272">
        <ele>156</ele>
        <time>2014-08-20T09:23:53.000Z</time>
      </trkpt>
      <trkpt lat="48.68576" lon="1.74261">
        <ele>156.39999389648</ele>
        <time>2014-08-20T09:24:00.000Z</time>
      </trkpt>
      <trkpt lat="48.68582" lon="1.74253">
        <ele>157</ele>
        <time>2014-08-20T09:24:06.000Z</time>
      </trkpt>
      <trkpt lat="48.68587" lon="1.74247">
        <ele>157.19999694824</ele>
        <time>2014-08-20T09:24:10.000Z</time>
      </trkpt>
      <trkpt lat="48.68596" lon="1.74232">
        <ele>158</ele>
        <time>2014-08-20T09:24:18.000Z</time>
      </trkpt>
      <trkpt lat="48.68605" lon="1.74227">
        <ele>158.39999389648</ele>
        <time>2014-08-20T09:24:25.000Z</time>
      </trkpt>
      <trkpt lat="48.68615" lon="1.7422">
        <ele>158.60000610352</ele>
        <time>2014-08-20T09:24:32.000Z</time>
      </trkpt>
      <trkpt lat="48.68621" lon="1.74213">
        <ele>158.60000610352</ele>
        <time>2014-08-20T09:24:39.000Z</time>
      </trkpt>
      <trkpt lat="48.68622" lon="1.74213">
        <ele>158.60000610352</ele>
        <time>2014-08-20T09:24:40.000Z</time>
      </trkpt>
      <trkpt lat="48.68628" lon="1.74212">
        <ele>158.60000610352</ele>
        <time>2014-08-20T09:24:46.000Z</time>
      </trkpt>
      <trkpt lat="48.68633" lon="1.74206">
        <ele>158.80000305176</ele>
        <time>2014-08-20T09:24:51.000Z</time>
      </trkpt>
      <trkpt lat="48.68633" lon="1.74196">
        <ele>159.19999694824</ele>
        <time>2014-08-20T09:24:55.000Z</time>
      </trkpt>
      <trkpt lat="48.68636" lon="1.74189">
        <ele>159.39999389648</ele>
        <time>2014-08-20T09:24:59.000Z</time>
      </trkpt>
      <trkpt lat="48.68639" lon="1.74184">
        <ele>159.39999389648</ele>
        <time>2014-08-20T09:25:03.000Z</time>
      </trkpt>
      <trkpt lat="48.68651" lon="1.74181">
        <ele>159</ele>
        <time>2014-08-20T09:25:12.000Z</time>
      </trkpt>
      <trkpt lat="48.68654" lon="1.74181">
        <ele>158.80000305176</ele>
        <time>2014-08-20T09:25:14.000Z</time>
      </trkpt>
      <trkpt lat="48.68667" lon="1.74183">
        <ele>158.39999389648</ele>
        <time>2014-08-20T09:25:22.000Z</time>
      </trkpt>
      <trkpt lat="48.68677" lon="1.74182">
        <ele>158</ele>
        <time>2014-08-20T09:25:28.000Z</time>
      </trkpt>
      <trkpt lat="48.68685" lon="1.74187">
        <ele>157.60000610352</ele>
        <time>2014-08-20T09:25:34.000Z</time>
      </trkpt>
      <trkpt lat="48.68694" lon="1.74191">
        <ele>157.60000610352</ele>
        <time>2014-08-20T09:25:40.000Z</time>
      </trkpt>
      <trkpt lat="48.68699" lon="1.74187">
        <ele>157.60000610352</ele>
        <time>2014-08-20T09:25:44.000Z</time>
      </trkpt>
      <trkpt lat="48.68703" lon="1.74186">
        <ele>157.60000610352</ele>
        <time>2014-08-20T09:25:48.000Z</time>
      </trkpt>
      <trkpt lat="48.68704" lon="1.74192">
        <ele>157.60000610352</ele>
        <time>2014-08-20T09:25:52.000Z</time>
      </trkpt>
      <trkpt lat="48.68702" lon="1.74204">
        <ele>157.39999389648</ele>
        <time>2014-08-20T09:25:59.000Z</time>
      </trkpt>
      <trkpt lat="48.68702" lon="1.74208">
        <ele>157.39999389648</ele>
        <time>2014-08-20T09:26:01.000Z</time>
      </trkpt>
      <trkpt lat="48.68701" lon="1.74212">
        <ele>157.19999694824</ele>
        <time>2014-08-20T09:26:03.000Z</time>
      </trkpt>
      <trkpt lat="48.68699" lon="1.74225">
        <ele>157.19999694824</ele>
        <time>2014-08-20T09:26:09.000Z</time>
      </trkpt>
      <trkpt lat="48.68697" lon="1.74229">
        <ele>157.19999694824</ele>
        <time>2014-08-20T09:26:11.000Z</time>
      </trkpt>
      <trkpt lat="48.68689" lon="1.74234">
        <ele>157</ele>
        <time>2014-08-20T09:26:17.000Z</time>
      </trkpt>
      <trkpt lat="48.68687" lon="1.74236">
        <ele>157</ele>
        <time>2014-08-20T09:26:19.000Z</time>
      </trkpt>
      <trkpt lat="48.68678" lon="1.74238">
        <ele>157.19999694824</ele>
        <time>2014-08-20T09:26:26.000Z</time>
      </trkpt>
      <trkpt lat="48.6867" lon="1.74241">
        <ele>157.19999694824</ele>
        <time>2014-08-20T09:26:32.000Z</time>
      </trkpt>
      <trkpt lat="48.68669" lon="1.74241">
        <ele>157.39999389648</ele>
        <time>2014-08-20T09:26:33.000Z</time>
      </trkpt>
      <trkpt lat="48.68661" lon="1.74244">
        <ele>157.39999389648</ele>
        <time>2014-08-20T09:26:39.000Z</time>
      </trkpt>
      <trkpt lat="48.6866" lon="1.74245">
        <ele>157.39999389648</ele>
        <time>2014-08-20T09:26:40.000Z</time>
      </trkpt>
      <trkpt lat="48.68649" lon="1.74248">
        <ele>157.60000610352</ele>
        <time>2014-08-20T09:26:48.000Z</time>
      </trkpt>
      <trkpt lat="48.68647" lon="1.74248">
        <ele>157.80000305176</ele>
        <time>2014-08-20T09:26:50.000Z</time>
      </trkpt>
      <trkpt lat="48.68637" lon="1.74255">
        <ele>158</ele>
        <time>2014-08-20T09:26:57.000Z</time>
      </trkpt>
      <trkpt lat="48.68628" lon="1.74263">
        <ele>158.19999694824</ele>
        <time>2014-08-20T09:27:03.000Z</time>
      </trkpt>
      <trkpt lat="48.68625" lon="1.74265">
        <ele>158</ele>
        <time>2014-08-20T09:27:07.000Z</time>
      </trkpt>
      <trkpt lat="48.6862" lon="1.74268">
        <ele>157.80000305176</ele>
        <time>2014-08-20T09:27:11.000Z</time>
      </trkpt>
      <trkpt lat="48.68614" lon="1.74272">
        <ele>157.19999694824</ele>
        <time>2014-08-20T09:27:18.000Z</time>
      </trkpt>
      <trkpt lat="48.68605" lon="1.74279">
        <ele>156.60000610352</ele>
        <time>2014-08-20T09:27:23.000Z</time>
      </trkpt>
      <trkpt lat="48.68595" lon="1.74289">
        <ele>156</ele>
        <time>2014-08-20T09:27:30.000Z</time>
      </trkpt>
      <trkpt lat="48.6859" lon="1.74295">
        <ele>155.60000610352</ele>
        <time>2014-08-20T09:27:36.000Z</time>
      </trkpt>
      <trkpt lat="48.68587" lon="1.74303">
        <ele>155.19999694824</ele>
        <time>2014-08-20T09:27:42.000Z</time>
      </trkpt>
      <trkpt lat="48.68583" lon="1.74316">
        <ele>154.80000305176</ele>
        <time>2014-08-20T09:27:49.000Z</time>
      </trkpt>
      <trkpt lat="48.68582" lon="1.74327">
        <ele>154.80000305176</ele>
        <time>2014-08-20T09:27:54.000Z</time>
      </trkpt>
      <trkpt lat="48.68582" lon="1.74338">
        <ele>155</ele>
        <time>2014-08-20T09:27:59.000Z</time>
      </trkpt>
      <trkpt lat="48.68582" lon="1.7435">
        <ele>155</ele>
        <time>2014-08-20T09:28:04.000Z</time>
      </trkpt>
      <trkpt lat="48.6858" lon="1.74365">
        <ele>155.19999694824</ele>
        <time>2014-08-20T09:28:11.000Z</time>
      </trkpt>
      <trkpt lat="48.6858" lon="1.74368">
        <ele>155.19999694824</ele>
        <time>2014-08-20T09:28:13.000Z</time>
      </trkpt>
      <trkpt lat="48.68579" lon="1.74367">
        <ele>155.19999694824</ele>
        <time>2014-08-20T09:28:23.000Z</time>
      </trkpt>
      <trkpt lat="48.68579" lon="1.74366">
        <ele>155.19999694824</ele>
        <time>2014-08-20T09:28:24.000Z</time>
      </trkpt>
      <trkpt lat="48.68579" lon="1.74375">
        <ele>155.39999389648</ele>
        <time>2014-08-20T09:28:43.000Z</time>
      </trkpt>
      <trkpt lat="48.68578" lon="1.74376">
        <ele>155.39999389648</ele>
        <time>2014-08-20T09:28:44.000Z</time>
      </trkpt>
      <trkpt lat="48.68575" lon="1.74386">
        <ele>154.80000305176</ele>
        <time>2014-08-20T09:28:48.000Z</time>
      </trkpt>
      <trkpt lat="48.68575" lon="1.74389">
        <ele>154.60000610352</ele>
        <time>2014-08-20T09:28:49.000Z</time>
      </trkpt>
      <trkpt lat="48.68574" lon="1.74393">
        <ele>154.19999694824</ele>
        <time>2014-08-20T09:28:51.000Z</time>
      </trkpt>
      <trkpt lat="48.68575" lon="1.74399">
        <ele>154</ele>
        <time>2014-08-20T09:28:55.000Z</time>
      </trkpt>
      <trkpt lat="48.68576" lon="1.74403">
        <ele>153.80000305176</ele>
        <time>2014-08-20T09:28:57.000Z</time>
      </trkpt>
      <trkpt lat="48.68569" lon="1.74415">
        <ele>154</ele>
        <time>2014-08-20T09:29:04.000Z</time>
      </trkpt>
      <trkpt lat="48.68566" lon="1.74421">
        <ele>154</ele>
        <time>2014-08-20T09:29:08.000Z</time>
      </trkpt>
      <trkpt lat="48.6856" lon="1.7443">
        <ele>154.19999694824</ele>
        <time>2014-08-20T09:29:13.000Z</time>
      </trkpt>
      <trkpt lat="48.68555" lon="1.74439">
        <ele>154.39999389648</ele>
        <time>2014-08-20T09:29:19.000Z</time>
      </trkpt>
      <trkpt lat="48.68549" lon="1.74445">
        <ele>154.39999389648</ele>
        <time>2014-08-20T09:29:24.000Z</time>
      </trkpt>
      <trkpt lat="48.68547" lon="1.74447">
        <ele>154.39999389648</ele>
        <time>2014-08-20T09:29:26.000Z</time>
      </trkpt>
      <trkpt lat="48.68533" lon="1.74456">
        <ele>153.80000305176</ele>
        <time>2014-08-20T09:29:34.000Z</time>
      </trkpt>
      <trkpt lat="48.68527" lon="1.74458">
        <ele>153.39999389648</ele>
        <time>2014-08-20T09:29:39.000Z</time>
      </trkpt>
      <trkpt lat="48.68526" lon="1.74458">
        <ele>153.39999389648</ele>
        <time>2014-08-20T09:29:40.000Z</time>
      </trkpt>
      <trkpt lat="48.68522" lon="1.7446">
        <ele>153.19999694824</ele>
        <time>2014-08-20T09:29:44.000Z</time>
      </trkpt>
      <trkpt lat="48.6851" lon="1.74466">
        <ele>154</ele>
        <time>2014-08-20T09:29:52.000Z</time>
      </trkpt>
      <trkpt lat="48.68501" lon="1.74469">
        <ele>154.60000610352</ele>
        <time>2014-08-20T09:29:57.000Z</time>
      </trkpt>
      <trkpt lat="48.68497" lon="1.74474">
        <ele>154.19999694824</ele>
        <time>2014-08-20T09:30:00.000Z</time>
      </trkpt>
      <trkpt lat="48.68491" lon="1.74477">
        <ele>153.80000305176</ele>
        <time>2014-08-20T09:30:05.000Z</time>
      </trkpt>
      <trkpt lat="48.68485" lon="1.74481">
        <ele>153.60000610352</ele>
        <time>2014-08-20T09:30:11.000Z</time>
      </trkpt>
      <trkpt lat="48.68479" lon="1.74485">
        <ele>153.19999694824</ele>
        <time>2014-08-20T09:30:17.000Z</time>
      </trkpt>
      <trkpt lat="48.68469" lon="1.74492">
        <ele>153</ele>
        <time>2014-08-20T09:30:25.000Z</time>
      </trkpt>
      <trkpt lat="48.68463" lon="1.74498">
        <ele>153.39999389648</ele>
        <time>2014-08-20T09:30:31.000Z</time>
      </trkpt>
      <trkpt lat="48.68459" lon="1.74501">
        <ele>153.39999389648</ele>
        <time>2014-08-20T09:30:34.000Z</time>
      </trkpt>
      <trkpt lat="48.68449" lon="1.74509">
        <ele>153.19999694824</ele>
        <time>2014-08-20T09:30:41.000Z</time>
      </trkpt>
      <trkpt lat="48.68447" lon="1.7451">
        <ele>153</ele>
        <time>2014-08-20T09:30:42.000Z</time>
      </trkpt>
      <trkpt lat="48.68442" lon="1.74513">
        <ele>152.60000610352</ele>
        <time>2014-08-20T09:30:45.000Z</time>
      </trkpt>
      <trkpt lat="48.68437" lon="1.74515">
        <ele>152</ele>
        <time>2014-08-20T09:30:51.000Z</time>
      </trkpt>
      <trkpt lat="48.68426" lon="1.74521">
        <ele>153</ele>
        <time>2014-08-20T09:30:59.000Z</time>
      </trkpt>
      <trkpt lat="48.68424" lon="1.74522">
        <ele>153.39999389648</ele>
        <time>2014-08-20T09:31:01.000Z</time>
      </trkpt>
      <trkpt lat="48.68416" lon="1.74525">
        <ele>154</ele>
        <time>2014-08-20T09:31:08.000Z</time>
      </trkpt>
      <trkpt lat="48.68413" lon="1.74525">
        <ele>154.39999389648</ele>
        <time>2014-08-20T09:31:10.000Z</time>
      </trkpt>
      <trkpt lat="48.68405" lon="1.74535">
        <ele>155.39999389648</ele>
        <time>2014-08-20T09:31:18.000Z</time>
      </trkpt>
      <trkpt lat="48.684" lon="1.74542">
        <ele>155.39999389648</ele>
        <time>2014-08-20T09:31:24.000Z</time>
      </trkpt>
      <trkpt lat="48.68396" lon="1.7455">
        <ele>155</ele>
        <time>2014-08-20T09:31:30.000Z</time>
      </trkpt>
      <trkpt lat="48.6839" lon="1.74559">
        <ele>154.60000610352</ele>
        <time>2014-08-20T09:31:37.000Z</time>
      </trkpt>
      <trkpt lat="48.68387" lon="1.74566">
        <ele>154.19999694824</ele>
        <time>2014-08-20T09:31:41.000Z</time>
      </trkpt>
      <trkpt lat="48.68379" lon="1.74577">
        <ele>154.39999389648</ele>
        <time>2014-08-20T09:31:48.000Z</time>
      </trkpt>
      <trkpt lat="48.68376" lon="1.74582">
        <ele>154.60000610352</ele>
        <time>2014-08-20T09:31:51.000Z</time>
      </trkpt>
      <trkpt lat="48.68371" lon="1.74594">
        <ele>155</ele>
        <time>2014-08-20T09:31:59.000Z</time>
      </trkpt>
      <trkpt lat="48.68368" lon="1.74602">
        <ele>154.80000305176</ele>
        <time>2014-08-20T09:32:05.000Z</time>
      </trkpt>
      <trkpt lat="48.68363" lon="1.74619">
        <ele>154.19999694824</ele>
        <time>2014-08-20T09:32:13.000Z</time>
      </trkpt>
      <trkpt lat="48.68357" lon="1.74627">
        <ele>153.60000610352</ele>
        <time>2014-08-20T09:32:18.000Z</time>
      </trkpt>
      <trkpt lat="48.68352" lon="1.7464">
        <ele>153.19999694824</ele>
        <time>2014-08-20T09:32:25.000Z</time>
      </trkpt>
      <trkpt lat="48.68349" lon="1.7465">
        <ele>153.39999389648</ele>
        <time>2014-08-20T09:32:31.000Z</time>
      </trkpt>
      <trkpt lat="48.68346" lon="1.74662">
        <ele>153.80000305176</ele>
        <time>2014-08-20T09:32:37.000Z</time>
      </trkpt>
      <trkpt lat="48.68342" lon="1.74673">
        <ele>154.39999389648</ele>
        <time>2014-08-20T09:32:43.000Z</time>
      </trkpt>
      <trkpt lat="48.68337" lon="1.74686">
        <ele>155.19999694824</ele>
        <time>2014-08-20T09:32:50.000Z</time>
      </trkpt>
      <trkpt lat="48.68332" lon="1.74695">
        <ele>156</ele>
        <time>2014-08-20T09:32:56.000Z</time>
      </trkpt>
      <trkpt lat="48.68324" lon="1.74707">
        <ele>157</ele>
        <time>2014-08-20T09:33:03.000Z</time>
      </trkpt>
      <trkpt lat="48.68323" lon="1.74708">
        <ele>157</ele>
        <time>2014-08-20T09:33:05.000Z</time>
      </trkpt>
      <trkpt lat="48.68321" lon="1.74713">
        <ele>156.60000610352</ele>
        <time>2014-08-20T09:33:09.000Z</time>
      </trkpt>
      <trkpt lat="48.68313" lon="1.74727">
        <ele>155.60000610352</ele>
        <time>2014-08-20T09:33:18.000Z</time>
      </trkpt>
      <trkpt lat="48.6831" lon="1.74732">
        <ele>155.39999389648</ele>
        <time>2014-08-20T09:33:21.000Z</time>
      </trkpt>
      <trkpt lat="48.68303" lon="1.74742">
        <ele>155</ele>
        <time>2014-08-20T09:33:28.000Z</time>
      </trkpt>
      <trkpt lat="48.68301" lon="1.74746">
        <ele>155.19999694824</ele>
        <time>2014-08-20T09:33:30.000Z</time>
      </trkpt>
      <trkpt lat="48.68293" lon="1.74758">
        <ele>155.60000610352</ele>
        <time>2014-08-20T09:33:39.000Z</time>
      </trkpt>
      <trkpt lat="48.68288" lon="1.74765">
        <ele>155.19999694824</ele>
        <time>2014-08-20T09:33:44.000Z</time>
      </trkpt>
      <trkpt lat="48.68282" lon="1.74777">
        <ele>154.19999694824</ele>
        <time>2014-08-20T09:33:51.000Z</time>
      </trkpt>
      <trkpt lat="48.6828" lon="1.7478">
        <ele>154</ele>
        <time>2014-08-20T09:33:53.000Z</time>
      </trkpt>
      <trkpt lat="48.68275" lon="1.74793">
        <ele>153.19999694824</ele>
        <time>2014-08-20T09:34:00.000Z</time>
      </trkpt>
      <trkpt lat="48.68274" lon="1.74796">
        <ele>153</ele>
        <time>2014-08-20T09:34:02.000Z</time>
      </trkpt>
      <trkpt lat="48.68268" lon="1.74807">
        <ele>152.39999389648</ele>
        <time>2014-08-20T09:34:09.000Z</time>
      </trkpt>
      <trkpt lat="48.68267" lon="1.74809">
        <ele>152.60000610352</ele>
        <time>2014-08-20T09:34:11.000Z</time>
      </trkpt>
      <trkpt lat="48.68264" lon="1.74817">
        <ele>152.60000610352</ele>
        <time>2014-08-20T09:34:17.000Z</time>
      </trkpt>
      <trkpt lat="48.68264" lon="1.74818">
        <ele>152.60000610352</ele>
        <time>2014-08-20T09:34:18.000Z</time>
      </trkpt>
      <trkpt lat="48.68259" lon="1.74829">
        <ele>152.60000610352</ele>
        <time>2014-08-20T09:34:25.000Z</time>
      </trkpt>
      <trkpt lat="48.68254" lon="1.74842">
        <ele>153</ele>
        <time>2014-08-20T09:34:32.000Z</time>
      </trkpt>
      <trkpt lat="48.6825" lon="1.74852">
        <ele>153.19999694824</ele>
        <time>2014-08-20T09:34:37.000Z</time>
      </trkpt>
      <trkpt lat="48.68247" lon="1.7486">
        <ele>153.39999389648</ele>
        <time>2014-08-20T09:34:42.000Z</time>
      </trkpt>
      <trkpt lat="48.68246" lon="1.74863">
        <ele>153.39999389648</ele>
        <time>2014-08-20T09:34:45.000Z</time>
      </trkpt>
      <trkpt lat="48.68241" lon="1.74876">
        <ele>153.80000305176</ele>
        <time>2014-08-20T09:34:52.000Z</time>
      </trkpt>
      <trkpt lat="48.68237" lon="1.74887">
        <ele>152.80000305176</ele>
        <time>2014-08-20T09:34:58.000Z</time>
      </trkpt>
      <trkpt lat="48.68235" lon="1.74898">
        <ele>152</ele>
        <time>2014-08-20T09:35:04.000Z</time>
      </trkpt>
      <trkpt lat="48.68232" lon="1.74912">
        <ele>152</ele>
        <time>2014-08-20T09:35:11.000Z</time>
      </trkpt>
      <trkpt lat="48.68231" lon="1.74921">
        <ele>152.60000610352</ele>
        <time>2014-08-20T09:35:15.000Z</time>
      </trkpt>
      <trkpt lat="48.68224" lon="1.74936">
        <ele>153.39999389648</ele>
        <time>2014-08-20T09:35:23.000Z</time>
      </trkpt>
      <trkpt lat="48.68222" lon="1.74949">
        <ele>153.39999389648</ele>
        <time>2014-08-20T09:35:30.000Z</time>
      </trkpt>
      <trkpt lat="48.6822" lon="1.74957">
        <ele>153.19999694824</ele>
        <time>2014-08-20T09:35:34.000Z</time>
      </trkpt>
      <trkpt lat="48.68219" lon="1.74963">
        <ele>153</ele>
        <time>2014-08-20T09:35:40.000Z</time>
      </trkpt>
      <trkpt lat="48.68219" lon="1.74963">
        <ele>153</ele>
        <time>2014-08-20T09:35:41.000Z</time>
      </trkpt>
      <trkpt lat="48.68216" lon="1.74972">
        <ele>152.60000610352</ele>
        <time>2014-08-20T09:35:50.000Z</time>
      </trkpt>
      <trkpt lat="48.68216" lon="1.74974">
        <ele>152.60000610352</ele>
        <time>2014-08-20T09:35:51.000Z</time>
      </trkpt>
      <trkpt lat="48.68214" lon="1.74982">
        <ele>152.39999389648</ele>
        <time>2014-08-20T09:35:59.000Z</time>
      </trkpt>
      <trkpt lat="48.68213" lon="1.74986">
        <ele>152.19999694824</ele>
        <time>2014-08-20T09:36:01.000Z</time>
      </trkpt>
      <trkpt lat="48.6821" lon="1.74996">
        <ele>152.60000610352</ele>
        <time>2014-08-20T09:36:05.000Z</time>
      </trkpt>
      <trkpt lat="48.68208" lon="1.75002">
        <ele>152.60000610352</ele>
        <time>2014-08-20T09:36:07.000Z</time>
      </trkpt>
      <trkpt lat="48.68206" lon="1.75006">
        <ele>152.80000305176</ele>
        <time>2014-08-20T09:36:09.000Z</time>
      </trkpt>
      <trkpt lat="48.68204" lon="1.75016">
        <ele>152.60000610352</ele>
        <time>2014-08-20T09:36:14.000Z</time>
      </trkpt>
      <trkpt lat="48.68198" lon="1.75026">
        <ele>152</ele>
        <time>2014-08-20T09:36:22.000Z</time>
      </trkpt>
      <trkpt lat="48.68197" lon="1.7503">
        <ele>152</ele>
        <time>2014-08-20T09:36:25.000Z</time>
      </trkpt>
      <trkpt lat="48.68192" lon="1.75041">
        <ele>151.39999389648</ele>
        <time>2014-08-20T09:36:31.000Z</time>
      </trkpt>
      <trkpt lat="48.68188" lon="1.75053">
        <ele>151</ele>
        <time>2014-08-20T09:36:38.000Z</time>
      </trkpt>
      <trkpt lat="48.68185" lon="1.75059">
        <ele>150.80000305176</ele>
        <time>2014-08-20T09:36:42.000Z</time>
      </trkpt>
      <trkpt lat="48.68179" lon="1.75074">
        <ele>150.80000305176</ele>
        <time>2014-08-20T09:36:51.000Z</time>
      </trkpt>
      <trkpt lat="48.68178" lon="1.75076">
        <ele>150.80000305176</ele>
        <time>2014-08-20T09:36:52.000Z</time>
      </trkpt>
      <trkpt lat="48.68174" lon="1.75086">
        <ele>151.19999694824</ele>
        <time>2014-08-20T09:36:57.000Z</time>
      </trkpt>
      <trkpt lat="48.68168" lon="1.75099">
        <ele>151.60000610352</ele>
        <time>2014-08-20T09:37:04.000Z</time>
      </trkpt>
      <trkpt lat="48.68164" lon="1.75106">
        <ele>151.80000305176</ele>
        <time>2014-08-20T09:37:10.000Z</time>
      </trkpt>
      <trkpt lat="48.68159" lon="1.75113">
        <ele>151.80000305176</ele>
        <time>2014-08-20T09:37:16.000Z</time>
      </trkpt>
      <trkpt lat="48.68159" lon="1.75121">
        <ele>152.39999389648</ele>
        <time>2014-08-20T09:37:20.000Z</time>
      </trkpt>
      <trkpt lat="48.68153" lon="1.75132">
        <ele>152.19999694824</ele>
        <time>2014-08-20T09:37:27.000Z</time>
      </trkpt>
      <trkpt lat="48.68143" lon="1.75147">
        <ele>151.60000610352</ele>
        <time>2014-08-20T09:37:35.000Z</time>
      </trkpt>
      <trkpt lat="48.68133" lon="1.75157">
        <ele>150.80000305176</ele>
        <time>2014-08-20T09:37:43.000Z</time>
      </trkpt>
      <trkpt lat="48.68127" lon="1.75167">
        <ele>150.39999389648</ele>
        <time>2014-08-20T09:37:50.000Z</time>
      </trkpt>
      <trkpt lat="48.68123" lon="1.75174">
        <ele>150</ele>
        <time>2014-08-20T09:37:55.000Z</time>
      </trkpt>
      <trkpt lat="48.68115" lon="1.75185">
        <ele>149.80000305176</ele>
        <time>2014-08-20T09:38:03.000Z</time>
      </trkpt>
      <trkpt lat="48.68108" lon="1.75194">
        <ele>149.80000305176</ele>
        <time>2014-08-20T09:38:09.000Z</time>
      </trkpt>
      <trkpt lat="48.68104" lon="1.75201">
        <ele>149.80000305176</ele>
        <time>2014-08-20T09:38:14.000Z</time>
      </trkpt>
      <trkpt lat="48.68102" lon="1.75203">
        <ele>149.80000305176</ele>
        <time>2014-08-20T09:38:16.000Z</time>
      </trkpt>
      <trkpt lat="48.68093" lon="1.75217">
        <ele>150.19999694824</ele>
        <time>2014-08-20T09:38:25.000Z</time>
      </trkpt>
      <trkpt lat="48.68089" lon="1.75225">
        <ele>150.39999389648</ele>
        <time>2014-08-20T09:38:30.000Z</time>
      </trkpt>
      <trkpt lat="48.68085" lon="1.75233">
        <ele>150.19999694824</ele>
        <time>2014-08-20T09:38:35.000Z</time>
      </trkpt>
      <trkpt lat="48.68082" lon="1.75244">
        <ele>150</ele>
        <time>2014-08-20T09:38:41.000Z</time>
      </trkpt>
      <trkpt lat="48.68079" lon="1.75256">
        <ele>149.80000305176</ele>
        <time>2014-08-20T09:38:47.000Z</time>
      </trkpt>
      <trkpt lat="48.68078" lon="1.75269">
        <ele>149.80000305176</ele>
        <time>2014-08-20T09:38:54.000Z</time>
      </trkpt>
      <trkpt lat="48.68076" lon="1.75279">
        <ele>149.80000305176</ele>
        <time>2014-08-20T09:38:59.000Z</time>
      </trkpt>
      <trkpt lat="48.68075" lon="1.75287">
        <ele>149.60000610352</ele>
        <time>2014-08-20T09:39:03.000Z</time>
      </trkpt>
      <trkpt lat="48.68077" lon="1.75306">
        <ele>149.80000305176</ele>
        <time>2014-08-20T09:39:11.000Z</time>
      </trkpt>
      <trkpt lat="48.68074" lon="1.75318">
        <ele>150</ele>
        <time>2014-08-20T09:39:17.000Z</time>
      </trkpt>
      <trkpt lat="48.68074" lon="1.75327">
        <ele>149.80000305176</ele>
        <time>2014-08-20T09:39:22.000Z</time>
      </trkpt>
      <trkpt lat="48.68072" lon="1.7534">
        <ele>149.60000610352</ele>
        <time>2014-08-20T09:39:28.000Z</time>
      </trkpt>
      <trkpt lat="48.68071" lon="1.75349">
        <ele>149.60000610352</ele>
        <time>2014-08-20T09:39:32.000Z</time>
      </trkpt>
      <trkpt lat="48.68069" lon="1.7536">
        <ele>149.39999389648</ele>
        <time>2014-08-20T09:39:38.000Z</time>
      </trkpt>
      <trkpt lat="48.68069" lon="1.75362">
        <ele>149.19999694824</ele>
        <time>2014-08-20T09:39:39.000Z</time>
      </trkpt>
      <trkpt lat="48.68068" lon="1.75368">
        <ele>149.19999694824</ele>
        <time>2014-08-20T09:39:42.000Z</time>
      </trkpt>
      <trkpt lat="48.68067" lon="1.7538">
        <ele>149.19999694824</ele>
        <time>2014-08-20T09:39:48.000Z</time>
      </trkpt>
      <trkpt lat="48.68064" lon="1.75392">
        <ele>149</ele>
        <time>2014-08-20T09:39:54.000Z</time>
      </trkpt>
      <trkpt lat="48.68061" lon="1.75405">
        <ele>149</ele>
        <time>2014-08-20T09:40:01.000Z</time>
      </trkpt>
      <trkpt lat="48.6806" lon="1.75411">
        <ele>149</ele>
        <time>2014-08-20T09:40:04.000Z</time>
      </trkpt>
      <trkpt lat="48.68058" lon="1.75425">
        <ele>149</ele>
        <time>2014-08-20T09:40:12.000Z</time>
      </trkpt>
      <trkpt lat="48.68058" lon="1.75427">
        <ele>149</ele>
        <time>2014-08-20T09:40:13.000Z</time>
      </trkpt>
      <trkpt lat="48.68057" lon="1.75435">
        <ele>148.80000305176</ele>
        <time>2014-08-20T09:40:17.000Z</time>
      </trkpt>
      <trkpt lat="48.68054" lon="1.75446">
        <ele>148.60000610352</ele>
        <time>2014-08-20T09:40:24.000Z</time>
      </trkpt>
      <trkpt lat="48.68052" lon="1.75458">
        <ele>148.19999694824</ele>
        <time>2014-08-20T09:40:30.000Z</time>
      </trkpt>
      <trkpt lat="48.68049" lon="1.75466">
        <ele>148</ele>
        <time>2014-08-20T09:40:34.000Z</time>
      </trkpt>
      <trkpt lat="48.68047" lon="1.75469">
        <ele>147.80000305176</ele>
        <time>2014-08-20T09:40:36.000Z</time>
      </trkpt>
      <trkpt lat="48.68045" lon="1.75486">
        <ele>147.19999694824</ele>
        <time>2014-08-20T09:40:45.000Z</time>
      </trkpt>
      <trkpt lat="48.68043" lon="1.75498">
        <ele>147.19999694824</ele>
        <time>2014-08-20T09:40:51.000Z</time>
      </trkpt>
      <trkpt lat="48.68044" lon="1.75501">
        <ele>147.19999694824</ele>
        <time>2014-08-20T09:40:53.000Z</time>
      </trkpt>
      <trkpt lat="48.68045" lon="1.75509">
        <ele>147.19999694824</ele>
        <time>2014-08-20T09:40:57.000Z</time>
      </trkpt>
      <trkpt lat="48.68051" lon="1.75518">
        <ele>147.39999389648</ele>
        <time>2014-08-20T09:41:04.000Z</time>
      </trkpt>
      <trkpt lat="48.6806" lon="1.75527">
        <ele>148</ele>
        <time>2014-08-20T09:41:11.000Z</time>
      </trkpt>
      <trkpt lat="48.68069" lon="1.75532">
        <ele>148.39999389648</ele>
        <time>2014-08-20T09:41:18.000Z</time>
      </trkpt>
      <trkpt lat="48.68077" lon="1.75538">
        <ele>148.80000305176</ele>
        <time>2014-08-20T09:41:25.000Z</time>
      </trkpt>
      <trkpt lat="48.68085" lon="1.75543">
        <ele>149.19999694824</ele>
        <time>2014-08-20T09:41:32.000Z</time>
      </trkpt>
      <trkpt lat="48.6809" lon="1.75547">
        <ele>149.39999389648</ele>
        <time>2014-08-20T09:41:37.000Z</time>
      </trkpt>
      <trkpt lat="48.681" lon="1.75557">
        <ele>149.80000305176</ele>
        <time>2014-08-20T09:41:45.000Z</time>
      </trkpt>
      <trkpt lat="48.68108" lon="1.75563">
        <ele>150.19999694824</ele>
        <time>2014-08-20T09:41:52.000Z</time>
      </trkpt>
      <trkpt lat="48.68117" lon="1.75572">
        <ele>150.39999389648</ele>
        <time>2014-08-20T09:42:00.000Z</time>
      </trkpt>
      <trkpt lat="48.68132" lon="1.75584">
        <ele>150.80000305176</ele>
        <time>2014-08-20T09:42:12.000Z</time>
      </trkpt>
      <trkpt lat="48.68149" lon="1.75593">
        <ele>151.19999694824</ele>
        <time>2014-08-20T09:42:25.000Z</time>
      </trkpt>
      <trkpt lat="48.68162" lon="1.75599">
        <ele>151.39999389648</ele>
        <time>2014-08-20T09:42:35.000Z</time>
      </trkpt>
      <trkpt lat="48.68172" lon="1.75606">
        <ele>151.60000610352</ele>
        <time>2014-08-20T09:42:43.000Z</time>
      </trkpt>
      <trkpt lat="48.68183" lon="1.75611">
        <ele>152</ele>
        <time>2014-08-20T09:42:51.000Z</time>
      </trkpt>
      <trkpt lat="48.68191" lon="1.75612">
        <ele>152</ele>
        <time>2014-08-20T09:42:56.000Z</time>
      </trkpt>
      <trkpt lat="48.68202" lon="1.75615">
        <ele>152.19999694824</ele>
        <time>2014-08-20T09:43:05.000Z</time>
      </trkpt>
      <trkpt lat="48.68216" lon="1.75618">
        <ele>152.39999389648</ele>
        <time>2014-08-20T09:43:14.000Z</time>
      </trkpt>
      <trkpt lat="48.68227" lon="1.75621">
        <ele>152.39999389648</ele>
        <time>2014-08-20T09:43:21.000Z</time>
      </trkpt>
      <trkpt lat="48.68238" lon="1.75626">
        <ele>152.60000610352</ele>
        <time>2014-08-20T09:43:30.000Z</time>
      </trkpt>
      <trkpt lat="48.68248" lon="1.7563">
        <ele>152.80000305176</ele>
        <time>2014-08-20T09:43:37.000Z</time>
      </trkpt>
      <trkpt lat="48.68249" lon="1.75631">
        <ele>152.80000305176</ele>
        <time>2014-08-20T09:43:38.000Z</time>
      </trkpt>
      <trkpt lat="48.68258" lon="1.75632">
        <ele>152.80000305176</ele>
        <time>2014-08-20T09:43:45.000Z</time>
      </trkpt>
      <trkpt lat="48.68269" lon="1.75631">
        <ele>153</ele>
        <time>2014-08-20T09:43:53.000Z</time>
      </trkpt>
      <trkpt lat="48.68281" lon="1.75637">
        <ele>152.80000305176</ele>
        <time>2014-08-20T09:44:01.000Z</time>
      </trkpt>
      <trkpt lat="48.68294" lon="1.75641">
        <ele>152.80000305176</ele>
        <time>2014-08-20T09:44:11.000Z</time>
      </trkpt>
      <trkpt lat="48.68304" lon="1.75643">
        <ele>152.60000610352</ele>
        <time>2014-08-20T09:44:19.000Z</time>
      </trkpt>
      <trkpt lat="48.68305" lon="1.75643">
        <ele>152.60000610352</ele>
        <time>2014-08-20T09:44:20.000Z</time>
      </trkpt>
      <trkpt lat="48.68317" lon="1.7564">
        <ele>152.39999389648</ele>
        <time>2014-08-20T09:44:29.000Z</time>
      </trkpt>
      <trkpt lat="48.68318" lon="1.75639">
        <ele>152.39999389648</ele>
        <time>2014-08-20T09:44:30.000Z</time>
      </trkpt>
      <trkpt lat="48.68327" lon="1.75635">
        <ele>152.39999389648</ele>
        <time>2014-08-20T09:44:37.000Z</time>
      </trkpt>
      <trkpt lat="48.68338" lon="1.75627">
        <ele>152.39999389648</ele>
        <time>2014-08-20T09:44:46.000Z</time>
      </trkpt>
      <trkpt lat="48.68347" lon="1.75618">
        <ele>152.39999389648</ele>
        <time>2014-08-20T09:44:55.000Z</time>
      </trkpt>
      <trkpt lat="48.68355" lon="1.75611">
        <ele>152.60000610352</ele>
        <time>2014-08-20T09:45:03.000Z</time>
      </trkpt>
      <trkpt lat="48.68364" lon="1.75608">
        <ele>152.80000305176</ele>
        <time>2014-08-20T09:45:10.000Z</time>
      </trkpt>
      <trkpt lat="48.68372" lon="1.75603">
        <ele>153</ele>
        <time>2014-08-20T09:45:18.000Z</time>
      </trkpt>
      <trkpt lat="48.68378" lon="1.756">
        <ele>153.19999694824</ele>
        <time>2014-08-20T09:45:25.000Z</time>
      </trkpt>
      <trkpt lat="48.68389" lon="1.75595">
        <ele>153.60000610352</ele>
        <time>2014-08-20T09:45:32.000Z</time>
      </trkpt>
      <trkpt lat="48.68397" lon="1.75591">
        <ele>153.80000305176</ele>
        <time>2014-08-20T09:45:38.000Z</time>
      </trkpt>
      <trkpt lat="48.68406" lon="1.75586">
        <ele>154</ele>
        <time>2014-08-20T09:45:46.000Z</time>
      </trkpt>
      <trkpt lat="48.68414" lon="1.75581">
        <ele>154.39999389648</ele>
        <time>2014-08-20T09:45:53.000Z</time>
      </trkpt>
      <trkpt lat="48.68425" lon="1.75576">
        <ele>154.60000610352</ele>
        <time>2014-08-20T09:46:01.000Z</time>
      </trkpt>
      <trkpt lat="48.68431" lon="1.75575">
        <ele>154.80000305176</ele>
        <time>2014-08-20T09:46:05.000Z</time>
      </trkpt>
      <trkpt lat="48.68442" lon="1.7557">
        <ele>155.19999694824</ele>
        <time>2014-08-20T09:46:13.000Z</time>
      </trkpt>
      <trkpt lat="48.68454" lon="1.75562">
        <ele>155.60000610352</ele>
        <time>2014-08-20T09:46:22.000Z</time>
      </trkpt>
      <trkpt lat="48.68461" lon="1.75557">
        <ele>156</ele>
        <time>2014-08-20T09:46:28.000Z</time>
      </trkpt>
      <trkpt lat="48.68472" lon="1.75551">
        <ele>156.39999389648</ele>
        <time>2014-08-20T09:46:36.000Z</time>
      </trkpt>
      <trkpt lat="48.68482" lon="1.75547">
        <ele>156.80000305176</ele>
        <time>2014-08-20T09:46:43.000Z</time>
      </trkpt>
      <trkpt lat="48.68492" lon="1.75541">
        <ele>157.19999694824</ele>
        <time>2014-08-20T09:46:51.000Z</time>
      </trkpt>
      <trkpt lat="48.68494" lon="1.7554">
        <ele>157.19999694824</ele>
        <time>2014-08-20T09:46:52.000Z</time>
      </trkpt>
      <trkpt lat="48.68503" lon="1.75541">
        <ele>156.80000305176</ele>
        <time>2014-08-20T09:46:59.000Z</time>
      </trkpt>
      <trkpt lat="48.68505" lon="1.75548">
        <ele>156.39999389648</ele>
        <time>2014-08-20T09:47:04.000Z</time>
      </trkpt>
      <trkpt lat="48.68506" lon="1.75557">
        <ele>156</ele>
        <time>2014-08-20T09:47:09.000Z</time>
      </trkpt>
      <trkpt lat="48.68507" lon="1.75566">
        <ele>155.39999389648</ele>
        <time>2014-08-20T09:47:14.000Z</time>
      </trkpt>
      <trkpt lat="48.68509" lon="1.75581">
        <ele>155</ele>
        <time>2014-08-20T09:47:20.000Z</time>
      </trkpt>
      <trkpt lat="48.68513" lon="1.75593">
        <ele>155</ele>
        <time>2014-08-20T09:47:25.000Z</time>
      </trkpt>
      <trkpt lat="48.68513" lon="1.7561">
        <ele>155</ele>
        <time>2014-08-20T09:47:33.000Z</time>
      </trkpt>
      <trkpt lat="48.68517" lon="1.75623">
        <ele>155</ele>
        <time>2014-08-20T09:47:39.000Z</time>
      </trkpt>
      <trkpt lat="48.68519" lon="1.75635">
        <ele>155</ele>
        <time>2014-08-20T09:47:46.000Z</time>
      </trkpt>
      <trkpt lat="48.68522" lon="1.75649">
        <ele>155</ele>
        <time>2014-08-20T09:47:52.000Z</time>
      </trkpt>
      <trkpt lat="48.68522" lon="1.75662">
        <ele>154.80000305176</ele>
        <time>2014-08-20T09:47:57.000Z</time>
      </trkpt>
      <trkpt lat="48.68524" lon="1.75673">
        <ele>154.80000305176</ele>
        <time>2014-08-20T09:48:02.000Z</time>
      </trkpt>
      <trkpt lat="48.68529" lon="1.75695">
        <ele>154.39999389648</ele>
        <time>2014-08-20T09:48:12.000Z</time>
      </trkpt>
      <trkpt lat="48.6853" lon="1.75697">
        <ele>154.39999389648</ele>
        <time>2014-08-20T09:48:13.000Z</time>
      </trkpt>
      <trkpt lat="48.68532" lon="1.75706">
        <ele>154.19999694824</ele>
        <time>2014-08-20T09:48:17.000Z</time>
      </trkpt>
      <trkpt lat="48.68531" lon="1.75715">
        <ele>154</ele>
        <time>2014-08-20T09:48:21.000Z</time>
      </trkpt>
      <trkpt lat="48.68536" lon="1.75726">
        <ele>153.80000305176</ele>
        <time>2014-08-20T09:48:26.000Z</time>
      </trkpt>
      <trkpt lat="48.6854" lon="1.75735">
        <ele>153.80000305176</ele>
        <time>2014-08-20T09:48:29.000Z</time>
      </trkpt>
      <trkpt lat="48.68539" lon="1.75746">
        <ele>153.39999389648</ele>
        <time>2014-08-20T09:48:34.000Z</time>
      </trkpt>
      <trkpt lat="48.68539" lon="1.75753">
        <ele>153.39999389648</ele>
        <time>2014-08-20T09:48:38.000Z</time>
      </trkpt>
      <trkpt lat="48.68541" lon="1.75767">
        <ele>153.19999694824</ele>
        <time>2014-08-20T09:48:44.000Z</time>
      </trkpt>
      <trkpt lat="48.68541" lon="1.75774">
        <ele>153</ele>
        <time>2014-08-20T09:48:47.000Z</time>
      </trkpt>
      <trkpt lat="48.68544" lon="1.75796">
        <ele>152.80000305176</ele>
        <time>2014-08-20T09:48:57.000Z</time>
      </trkpt>
      <trkpt lat="48.68544" lon="1.75811">
        <ele>152.60000610352</ele>
        <time>2014-08-20T09:49:04.000Z</time>
      </trkpt>
      <trkpt lat="48.68543" lon="1.75815">
        <ele>152.60000610352</ele>
        <time>2014-08-20T09:49:06.000Z</time>
      </trkpt>
      <trkpt lat="48.68542" lon="1.75826">
        <ele>152.39999389648</ele>
        <time>2014-08-20T09:49:12.000Z</time>
      </trkpt>
      <trkpt lat="48.68547" lon="1.75838">
        <ele>152.39999389648</ele>
        <time>2014-08-20T09:49:18.000Z</time>
      </trkpt>
      <trkpt lat="48.68548" lon="1.75845">
        <ele>152.39999389648</ele>
        <time>2014-08-20T09:49:21.000Z</time>
      </trkpt>
      <trkpt lat="48.68551" lon="1.75858">
        <ele>152.19999694824</ele>
        <time>2014-08-20T09:49:28.000Z</time>
      </trkpt>
      <trkpt lat="48.68552" lon="1.7586">
        <ele>152.19999694824</ele>
        <time>2014-08-20T09:49:29.000Z</time>
      </trkpt>
      <trkpt lat="48.68553" lon="1.75869">
        <ele>151.80000305176</ele>
        <time>2014-08-20T09:49:33.000Z</time>
      </trkpt>
      <trkpt lat="48.68555" lon="1.75879">
        <ele>151.60000610352</ele>
        <time>2014-08-20T09:49:39.000Z</time>
      </trkpt>
      <trkpt lat="48.68557" lon="1.75886">
        <ele>151.39999389648</ele>
        <time>2014-08-20T09:49:43.000Z</time>
      </trkpt>
      <trkpt lat="48.68559" lon="1.75899">
        <ele>151</ele>
        <time>2014-08-20T09:49:49.000Z</time>
      </trkpt>
      <trkpt lat="48.68558" lon="1.75901">
        <ele>151</ele>
        <time>2014-08-20T09:49:50.000Z</time>
      </trkpt>
      <trkpt lat="48.68558" lon="1.75913">
        <ele>150.80000305176</ele>
        <time>2014-08-20T09:49:56.000Z</time>
      </trkpt>
      <trkpt lat="48.6856" lon="1.75933">
        <ele>151</ele>
        <time>2014-08-20T09:50:05.000Z</time>
      </trkpt>
      <trkpt lat="48.6856" lon="1.75945">
        <ele>151</ele>
        <time>2014-08-20T09:50:11.000Z</time>
      </trkpt>
      <trkpt lat="48.68561" lon="1.75956">
        <ele>151</ele>
        <time>2014-08-20T09:50:16.000Z</time>
      </trkpt>
      <trkpt lat="48.68564" lon="1.7597">
        <ele>151.39999389648</ele>
        <time>2014-08-20T09:50:23.000Z</time>
      </trkpt>
      <trkpt lat="48.68567" lon="1.75984">
        <ele>151.60000610352</ele>
        <time>2014-08-20T09:50:30.000Z</time>
      </trkpt>
      <trkpt lat="48.68567" lon="1.75991">
        <ele>151.60000610352</ele>
        <time>2014-08-20T09:50:33.000Z</time>
      </trkpt>
      <trkpt lat="48.6857" lon="1.76001">
        <ele>151.80000305176</ele>
        <time>2014-08-20T09:50:40.000Z</time>
      </trkpt>
      <trkpt lat="48.68571" lon="1.76002">
        <ele>151.80000305176</ele>
        <time>2014-08-20T09:50:41.000Z</time>
      </trkpt>
      <trkpt lat="48.68573" lon="1.76004">
        <ele>152</ele>
        <time>2014-08-20T09:50:43.000Z</time>
      </trkpt>
      <trkpt lat="48.68578" lon="1.76005">
        <ele>152.19999694824</ele>
        <time>2014-08-20T09:50:47.000Z</time>
      </trkpt>
      <trkpt lat="48.68592" lon="1.76006">
        <ele>152.60000610352</ele>
        <time>2014-08-20T09:50:55.000Z</time>
      </trkpt>
      <trkpt lat="48.68598" lon="1.76006">
        <ele>152.80000305176</ele>
        <time>2014-08-20T09:50:59.000Z</time>
      </trkpt>
      <trkpt lat="48.6861" lon="1.76008">
        <ele>153.39999389648</ele>
        <time>2014-08-20T09:51:07.000Z</time>
      </trkpt>
      <trkpt lat="48.68617" lon="1.76011">
        <ele>153.80000305176</ele>
        <time>2014-08-20T09:51:12.000Z</time>
      </trkpt>
      <trkpt lat="48.68625" lon="1.76012">
        <ele>154.39999389648</ele>
        <time>2014-08-20T09:51:18.000Z</time>
      </trkpt>
      <trkpt lat="48.68628" lon="1.76014">
        <ele>154.39999389648</ele>
        <time>2014-08-20T09:51:23.000Z</time>
      </trkpt>
      <trkpt lat="48.68638" lon="1.76016">
        <ele>155.19999694824</ele>
        <time>2014-08-20T09:51:29.000Z</time>
      </trkpt>
      <trkpt lat="48.68646" lon="1.7602">
        <ele>155.80000305176</ele>
        <time>2014-08-20T09:51:34.000Z</time>
      </trkpt>
      <trkpt lat="48.68655" lon="1.76023">
        <ele>156.60000610352</ele>
        <time>2014-08-20T09:51:41.000Z</time>
      </trkpt>
      <trkpt lat="48.68666" lon="1.76021">
        <ele>157.39999389648</ele>
        <time>2014-08-20T09:51:48.000Z</time>
      </trkpt>
      <trkpt lat="48.68674" lon="1.76019">
        <ele>158.19999694824</ele>
        <time>2014-08-20T09:51:54.000Z</time>
      </trkpt>
      <trkpt lat="48.68682" lon="1.76024">
        <ele>158.80000305176</ele>
        <time>2014-08-20T09:52:00.000Z</time>
      </trkpt>
      <trkpt lat="48.68691" lon="1.76032">
        <ele>159.19999694824</ele>
        <time>2014-08-20T09:52:05.000Z</time>
      </trkpt>
      <trkpt lat="48.68698" lon="1.76033">
        <ele>159.80000305176</ele>
        <time>2014-08-20T09:52:10.000Z</time>
      </trkpt>
      <trkpt lat="48.68708" lon="1.76039">
        <ele>160.39999389648</ele>
        <time>2014-08-20T09:52:16.000Z</time>
      </trkpt>
      <trkpt lat="48.68719" lon="1.76044">
        <ele>161</ele>
        <time>2014-08-20T09:52:23.000Z</time>
      </trkpt>
      <trkpt lat="48.68726" lon="1.76047">
        <ele>161.39999389648</ele>
        <time>2014-08-20T09:52:29.000Z</time>
      </trkpt>
      <trkpt lat="48.68732" lon="1.76049">
        <ele>161.80000305176</ele>
        <time>2014-08-20T09:52:34.000Z</time>
      </trkpt>
      <trkpt lat="48.6874" lon="1.76052">
        <ele>162.19999694824</ele>
        <time>2014-08-20T09:52:40.000Z</time>
      </trkpt>
      <trkpt lat="48.68741" lon="1.76054">
        <ele>162.39999389648</ele>
        <time>2014-08-20T09:52:41.000Z</time>
      </trkpt>
      <trkpt lat="48.68753" lon="1.76057">
        <ele>163.19999694824</ele>
        <time>2014-08-20T09:52:50.000Z</time>
      </trkpt>
      <trkpt lat="48.68761" lon="1.76061">
        <ele>163.60000610352</ele>
        <time>2014-08-20T09:52:56.000Z</time>
      </trkpt>
      <trkpt lat="48.6877" lon="1.76066">
        <ele>164</ele>
        <time>2014-08-20T09:53:02.000Z</time>
      </trkpt>
      <trkpt lat="48.68774" lon="1.76069">
        <ele>164.19999694824</ele>
        <time>2014-08-20T09:53:07.000Z</time>
      </trkpt>
      <trkpt lat="48.68779" lon="1.76075">
        <ele>164.39999389648</ele>
        <time>2014-08-20T09:53:15.000Z</time>
      </trkpt>
      <trkpt lat="48.68786" lon="1.76078">
        <ele>164.80000305176</ele>
        <time>2014-08-20T09:53:21.000Z</time>
      </trkpt>
      <trkpt lat="48.68793" lon="1.76075">
        <ele>165</ele>
        <time>2014-08-20T09:53:26.000Z</time>
      </trkpt>
      <trkpt lat="48.68801" lon="1.76076">
        <ele>165.39999389648</ele>
        <time>2014-08-20T09:53:32.000Z</time>
      </trkpt>
      <trkpt lat="48.68808" lon="1.76079">
        <ele>165.60000610352</ele>
        <time>2014-08-20T09:53:36.000Z</time>
      </trkpt>
      <trkpt lat="48.68817" lon="1.76079">
        <ele>166</ele>
        <time>2014-08-20T09:53:41.000Z</time>
      </trkpt>
      <trkpt lat="48.6882" lon="1.7608">
        <ele>166.19999694824</ele>
        <time>2014-08-20T09:53:43.000Z</time>
      </trkpt>
      <trkpt lat="48.68829" lon="1.76079">
        <ele>166.39999389648</ele>
        <time>2014-08-20T09:53:51.000Z</time>
      </trkpt>
      <trkpt lat="48.68837" lon="1.76084">
        <ele>166.80000305176</ele>
        <time>2014-08-20T09:53:57.000Z</time>
      </trkpt>
      <trkpt lat="48.68846" lon="1.7609">
        <ele>167.39999389648</ele>
        <time>2014-08-20T09:54:03.000Z</time>
      </trkpt>
      <trkpt lat="48.68856" lon="1.76094">
        <ele>168</ele>
        <time>2014-08-20T09:54:10.000Z</time>
      </trkpt>
      <trkpt lat="48.68864" lon="1.761">
        <ele>168.80000305176</ele>
        <time>2014-08-20T09:54:15.000Z</time>
      </trkpt>
      <trkpt lat="48.68873" lon="1.76107">
        <ele>169.80000305176</ele>
        <time>2014-08-20T09:54:21.000Z</time>
      </trkpt>
      <trkpt lat="48.68881" lon="1.7611">
        <ele>170.39999389648</ele>
        <time>2014-08-20T09:54:27.000Z</time>
      </trkpt>
      <trkpt lat="48.68887" lon="1.76107">
        <ele>170.60000610352</ele>
        <time>2014-08-20T09:54:33.000Z</time>
      </trkpt>
      <trkpt lat="48.68887" lon="1.76106">
        <ele>170.60000610352</ele>
        <time>2014-08-20T09:54:34.000Z</time>
      </trkpt>
      <trkpt lat="48.68894" lon="1.76104">
        <ele>171</ele>
        <time>2014-08-20T09:54:41.000Z</time>
      </trkpt>
      <trkpt lat="48.68898" lon="1.76107">
        <ele>171.39999389648</ele>
        <time>2014-08-20T09:54:45.000Z</time>
      </trkpt>
      <trkpt lat="48.68903" lon="1.76111">
        <ele>171.80000305176</ele>
        <time>2014-08-20T09:54:48.000Z</time>
      </trkpt>
      <trkpt lat="48.68914" lon="1.76113">
        <ele>172.60000610352</ele>
        <time>2014-08-20T09:54:55.000Z</time>
      </trkpt>
      <trkpt lat="48.68922" lon="1.76117">
        <ele>173.39999389648</ele>
        <time>2014-08-20T09:55:01.000Z</time>
      </trkpt>
      <trkpt lat="48.6893" lon="1.76121">
        <ele>174</ele>
        <time>2014-08-20T09:55:06.000Z</time>
      </trkpt>
      <trkpt lat="48.68934" lon="1.76123">
        <ele>174.39999389648</ele>
        <time>2014-08-20T09:55:11.000Z</time>
      </trkpt>
      <trkpt lat="48.6894" lon="1.76121">
        <ele>174.60000610352</ele>
        <time>2014-08-20T09:55:16.000Z</time>
      </trkpt>
      <trkpt lat="48.68947" lon="1.76122">
        <ele>175.39999389648</ele>
        <time>2014-08-20T09:55:21.000Z</time>
      </trkpt>
      <trkpt lat="48.68961" lon="1.76132">
        <ele>177</ele>
        <time>2014-08-20T09:55:28.000Z</time>
      </trkpt>
      <trkpt lat="48.68967" lon="1.76135">
        <ele>177.60000610352</ele>
        <time>2014-08-20T09:55:34.000Z</time>
      </trkpt>
      <trkpt lat="48.68972" lon="1.76139">
        <ele>178.19999694824</ele>
        <time>2014-08-20T09:55:40.000Z</time>
      </trkpt>
      <trkpt lat="48.68978" lon="1.76142">
        <ele>178.80000305176</ele>
        <time>2014-08-20T09:55:45.000Z</time>
      </trkpt>
      <trkpt lat="48.68984" lon="1.76151">
        <ele>179.80000305176</ele>
        <time>2014-08-20T09:55:51.000Z</time>
      </trkpt>
      <trkpt lat="48.68988" lon="1.76155">
        <ele>180.19999694824</ele>
        <time>2014-08-20T09:55:54.000Z</time>
      </trkpt>
      <trkpt lat="48.68997" lon="1.76161">
        <ele>181.19999694824</ele>
        <time>2014-08-20T09:56:02.000Z</time>
      </trkpt>
      <trkpt lat="48.69005" lon="1.76163">
        <ele>181.80000305176</ele>
        <time>2014-08-20T09:56:09.000Z</time>
      </trkpt>
      <trkpt lat="48.6901" lon="1.76159">
        <ele>182.19999694824</ele>
        <time>2014-08-20T09:56:15.000Z</time>
      </trkpt>
      <trkpt lat="48.69016" lon="1.76158">
        <ele>182.60000610352</ele>
        <time>2014-08-20T09:56:19.000Z</time>
      </trkpt>
      <trkpt lat="48.69024" lon="1.76159">
        <ele>183</ele>
        <time>2014-08-20T09:56:25.000Z</time>
      </trkpt>
      <trkpt lat="48.69035" lon="1.76161">
        <ele>183</ele>
        <time>2014-08-20T09:56:32.000Z</time>
      </trkpt>
      <trkpt lat="48.69044" lon="1.76164">
        <ele>183</ele>
        <time>2014-08-20T09:56:38.000Z</time>
      </trkpt>
      <trkpt lat="48.69052" lon="1.76166">
        <ele>183</ele>
        <time>2014-08-20T09:56:42.000Z</time>
      </trkpt>
      <trkpt lat="48.69056" lon="1.76168">
        <ele>182.80000305176</ele>
        <time>2014-08-20T09:56:44.000Z</time>
      </trkpt>
      <trkpt lat="48.69065" lon="1.76176">
        <ele>183</ele>
        <time>2014-08-20T09:56:50.000Z</time>
      </trkpt>
      <trkpt lat="48.69068" lon="1.76179">
        <ele>183</ele>
        <time>2014-08-20T09:56:51.000Z</time>
      </trkpt>
      <trkpt lat="48.69072" lon="1.76185">
        <ele>183.19999694824</ele>
        <time>2014-08-20T09:56:55.000Z</time>
      </trkpt>
      <trkpt lat="48.69082" lon="1.7619">
        <ele>183</ele>
        <time>2014-08-20T09:57:03.000Z</time>
      </trkpt>
      <trkpt lat="48.69089" lon="1.76191">
        <ele>183</ele>
        <time>2014-08-20T09:57:10.000Z</time>
      </trkpt>
      <trkpt lat="48.69094" lon="1.76194">
        <ele>183</ele>
        <time>2014-08-20T09:57:13.000Z</time>
      </trkpt>
      <trkpt lat="48.69103" lon="1.76205">
        <ele>183.19999694824</ele>
        <time>2014-08-20T09:57:20.000Z</time>
      </trkpt>
      <trkpt lat="48.69106" lon="1.76209">
        <ele>183.19999694824</ele>
        <time>2014-08-20T09:57:22.000Z</time>
      </trkpt>
      <trkpt lat="48.69116" lon="1.7622">
        <ele>183.39999389648</ele>
        <time>2014-08-20T09:57:30.000Z</time>
      </trkpt>
      <trkpt lat="48.69126" lon="1.76227">
        <ele>183.39999389648</ele>
        <time>2014-08-20T09:57:39.000Z</time>
      </trkpt>
      <trkpt lat="48.69132" lon="1.76231">
        <ele>183.39999389648</ele>
        <time>2014-08-20T09:57:46.000Z</time>
      </trkpt>
      <trkpt lat="48.69134" lon="1.76231">
        <ele>183.39999389648</ele>
        <time>2014-08-20T09:57:47.000Z</time>
      </trkpt>
      <trkpt lat="48.6914" lon="1.76238">
        <ele>183.60000610352</ele>
        <time>2014-08-20T09:57:53.000Z</time>
      </trkpt>
      <trkpt lat="48.69143" lon="1.76238">
        <ele>183.60000610352</ele>
        <time>2014-08-20T09:57:56.000Z</time>
      </trkpt>
      <trkpt lat="48.69146" lon="1.76238">
        <ele>183.39999389648</ele>
        <time>2014-08-20T09:58:01.000Z</time>
      </trkpt>
      <trkpt lat="48.69152" lon="1.7624">
        <ele>183.39999389648</ele>
        <time>2014-08-20T09:58:07.000Z</time>
      </trkpt>
      <trkpt lat="48.69156" lon="1.76242">
        <ele>183.39999389648</ele>
        <time>2014-08-20T09:58:11.000Z</time>
      </trkpt>
      <trkpt lat="48.69158" lon="1.76242">
        <ele>183.39999389648</ele>
        <time>2014-08-20T09:58:13.000Z</time>
      </trkpt>
      <trkpt lat="48.69165" lon="1.76248">
        <ele>183.19999694824</ele>
        <time>2014-08-20T09:58:18.000Z</time>
      </trkpt>
      <trkpt lat="48.69177" lon="1.76259">
        <ele>183.19999694824</ele>
        <time>2014-08-20T09:58:25.000Z</time>
      </trkpt>
      <trkpt lat="48.69193" lon="1.76272">
        <ele>182.80000305176</ele>
        <time>2014-08-20T09:58:34.000Z</time>
      </trkpt>
      <trkpt lat="48.69198" lon="1.76269">
        <ele>182.80000305176</ele>
        <time>2014-08-20T09:58:40.000Z</time>
      </trkpt>
      <trkpt lat="48.69198" lon="1.76268">
        <ele>182.80000305176</ele>
        <time>2014-08-20T09:58:41.000Z</time>
      </trkpt>
      <trkpt lat="48.69199" lon="1.76264">
        <ele>182.80000305176</ele>
        <time>2014-08-20T09:58:43.000Z</time>
      </trkpt>
      <trkpt lat="48.69198" lon="1.7626">
        <ele>182.80000305176</ele>
        <time>2014-08-20T09:58:48.000Z</time>
      </trkpt>
      <trkpt lat="48.69201" lon="1.76259">
        <ele>182.60000610352</ele>
        <time>2014-08-20T09:58:54.000Z</time>
      </trkpt>
      <trkpt lat="48.69202" lon="1.76246">
        <ele>182.80000305176</ele>
        <time>2014-08-20T09:59:06.000Z</time>
      </trkpt>
      <trkpt lat="48.69202" lon="1.76245">
        <ele>182.80000305176</ele>
        <time>2014-08-20T09:59:07.000Z</time>
      </trkpt>
      <trkpt lat="48.69202" lon="1.76233">
        <ele>182.60000610352</ele>
        <time>2014-08-20T09:59:12.000Z</time>
      </trkpt>
      <trkpt lat="48.69202" lon="1.76223">
        <ele>182.19999694824</ele>
        <time>2014-08-20T09:59:16.000Z</time>
      </trkpt>
      <trkpt lat="48.69203" lon="1.76214">
        <ele>182</ele>
        <time>2014-08-20T09:59:20.000Z</time>
      </trkpt>
      <trkpt lat="48.69206" lon="1.76204">
        <ele>181.60000610352</ele>
        <time>2014-08-20T09:59:24.000Z</time>
      </trkpt>
      <trkpt lat="48.69206" lon="1.76187">
        <ele>181</ele>
        <time>2014-08-20T09:59:31.000Z</time>
      </trkpt>
      <trkpt lat="48.6921" lon="1.76177">
        <ele>180.60000610352</ele>
        <time>2014-08-20T09:59:37.000Z</time>
      </trkpt>
      <trkpt lat="48.69212" lon="1.76164">
        <ele>180.60000610352</ele>
        <time>2014-08-20T09:59:43.000Z</time>
      </trkpt>
      <trkpt lat="48.69216" lon="1.76149">
        <ele>180.39999389648</ele>
        <time>2014-08-20T09:59:50.000Z</time>
      </trkpt>
      <trkpt lat="48.69217" lon="1.76137">
        <ele>180</ele>
        <time>2014-08-20T09:59:56.000Z</time>
      </trkpt>
      <trkpt lat="48.69219" lon="1.76122">
        <ele>179.19999694824</ele>
        <time>2014-08-20T10:00:03.000Z</time>
      </trkpt>
      <trkpt lat="48.69223" lon="1.7611">
        <ele>178.80000305176</ele>
        <time>2014-08-20T10:00:09.000Z</time>
      </trkpt>
      <trkpt lat="48.69224" lon="1.76093">
        <ele>178.19999694824</ele>
        <time>2014-08-20T10:00:15.000Z</time>
      </trkpt>
      <trkpt lat="48.69226" lon="1.76076">
        <ele>177.60000610352</ele>
        <time>2014-08-20T10:00:22.000Z</time>
      </trkpt>
      <trkpt lat="48.69227" lon="1.76065">
        <ele>177.19999694824</ele>
        <time>2014-08-20T10:00:27.000Z</time>
      </trkpt>
      <trkpt lat="48.6923" lon="1.7605">
        <ele>176.80000305176</ele>
        <time>2014-08-20T10:00:34.000Z</time>
      </trkpt>
      <trkpt lat="48.69232" lon="1.7604">
        <ele>176.60000610352</ele>
        <time>2014-08-20T10:00:39.000Z</time>
      </trkpt>
      <trkpt lat="48.69233" lon="1.76035">
        <ele>176.39999389648</ele>
        <time>2014-08-20T10:00:42.000Z</time>
      </trkpt>
      <trkpt lat="48.69231" lon="1.76024">
        <ele>175.80000305176</ele>
        <time>2014-08-20T10:00:49.000Z</time>
      </trkpt>
      <trkpt lat="48.69232" lon="1.76012">
        <ele>175</ele>
        <time>2014-08-20T10:00:55.000Z</time>
      </trkpt>
      <trkpt lat="48.69235" lon="1.76007">
        <ele>174.80000305176</ele>
        <time>2014-08-20T10:00:57.000Z</time>
      </trkpt>
      <trkpt lat="48.69239" lon="1.75996">
        <ele>174.19999694824</ele>
        <time>2014-08-20T10:01:02.000Z</time>
      </trkpt>
      <trkpt lat="48.69239" lon="1.75985">
        <ele>173.39999389648</ele>
        <time>2014-08-20T10:01:08.000Z</time>
      </trkpt>
      <trkpt lat="48.69239" lon="1.7598">
        <ele>173.19999694824</ele>
        <time>2014-08-20T10:01:11.000Z</time>
      </trkpt>
      <trkpt lat="48.69238" lon="1.75972">
        <ele>172.60000610352</ele>
        <time>2014-08-20T10:01:15.000Z</time>
      </trkpt>
      <trkpt lat="48.69238" lon="1.75966">
        <ele>172.19999694824</ele>
        <time>2014-08-20T10:01:19.000Z</time>
      </trkpt>
      <trkpt lat="48.69234" lon="1.75947">
        <ele>171.19999694824</ele>
        <time>2014-08-20T10:01:26.000Z</time>
      </trkpt>
      <trkpt lat="48.69234" lon="1.75945">
        <ele>171</ele>
        <time>2014-08-20T10:01:27.000Z</time>
      </trkpt>
      <trkpt lat="48.69239" lon="1.75931">
        <ele>170.19999694824</ele>
        <time>2014-08-20T10:01:35.000Z</time>
      </trkpt>
      <trkpt lat="48.69242" lon="1.75923">
        <ele>169.80000305176</ele>
        <time>2014-08-20T10:01:39.000Z</time>
      </trkpt>
      <trkpt lat="48.69249" lon="1.75905">
        <ele>168.80000305176</ele>
        <time>2014-08-20T10:01:49.000Z</time>
      </trkpt>
      <trkpt lat="48.6925" lon="1.75903">
        <ele>168.80000305176</ele>
        <time>2014-08-20T10:01:50.000Z</time>
      </trkpt>
      <trkpt lat="48.6925" lon="1.75898">
        <ele>168.60000610352</ele>
        <time>2014-08-20T10:01:53.000Z</time>
      </trkpt>
      <trkpt lat="48.69247" lon="1.75888">
        <ele>168.19999694824</ele>
        <time>2014-08-20T10:01:58.000Z</time>
      </trkpt>
      <trkpt lat="48.69244" lon="1.75882">
        <ele>167.80000305176</ele>
        <time>2014-08-20T10:02:03.000Z</time>
      </trkpt>
      <trkpt lat="48.69253" lon="1.75866">
        <ele>166.80000305176</ele>
        <time>2014-08-20T10:02:11.000Z</time>
      </trkpt>
      <trkpt lat="48.69256" lon="1.75857">
        <ele>166.39999389648</ele>
        <time>2014-08-20T10:02:17.000Z</time>
      </trkpt>
      <trkpt lat="48.69257" lon="1.75855">
        <ele>166.19999694824</ele>
        <time>2014-08-20T10:02:19.000Z</time>
      </trkpt>
      <trkpt lat="48.69265" lon="1.75847">
        <ele>165.60000610352</ele>
        <time>2014-08-20T10:02:25.000Z</time>
      </trkpt>
      <trkpt lat="48.69277" lon="1.75837">
        <ele>164.80000305176</ele>
        <time>2014-08-20T10:02:33.000Z</time>
      </trkpt>
      <trkpt lat="48.69278" lon="1.75836">
        <ele>164.80000305176</ele>
        <time>2014-08-20T10:02:34.000Z</time>
      </trkpt>
      <trkpt lat="48.69286" lon="1.75823">
        <ele>164.19999694824</ele>
        <time>2014-08-20T10:02:41.000Z</time>
      </trkpt>
      <trkpt lat="48.6929" lon="1.7582">
        <ele>164.19999694824</ele>
        <time>2014-08-20T10:02:45.000Z</time>
      </trkpt>
      <trkpt lat="48.69303" lon="1.75819">
        <ele>164.39999389648</ele>
        <time>2014-08-20T10:02:52.000Z</time>
      </trkpt>
      <trkpt lat="48.69316" lon="1.75823">
        <ele>164.60000610352</ele>
        <time>2014-08-20T10:02:58.000Z</time>
      </trkpt>
      <trkpt lat="48.69324" lon="1.75819">
        <ele>164.60000610352</ele>
        <time>2014-08-20T10:03:03.000Z</time>
      </trkpt>
      <trkpt lat="48.69333" lon="1.75817">
        <ele>164.60000610352</ele>
        <time>2014-08-20T10:03:10.000Z</time>
      </trkpt>
      <trkpt lat="48.69334" lon="1.75816">
        <ele>164.60000610352</ele>
        <time>2014-08-20T10:03:11.000Z</time>
      </trkpt>
      <trkpt lat="48.69345" lon="1.75824">
        <ele>165</ele>
        <time>2014-08-20T10:03:17.000Z</time>
      </trkpt>
      <trkpt lat="48.69356" lon="1.75828">
        <ele>165.19999694824</ele>
        <time>2014-08-20T10:03:25.000Z</time>
      </trkpt>
      <trkpt lat="48.69363" lon="1.75829">
        <ele>165.39999389648</ele>
        <time>2014-08-20T10:03:32.000Z</time>
      </trkpt>
      <trkpt lat="48.6937" lon="1.75828">
        <ele>165.60000610352</ele>
        <time>2014-08-20T10:03:38.000Z</time>
      </trkpt>
      <trkpt lat="48.69376" lon="1.7583">
        <ele>165.80000305176</ele>
        <time>2014-08-20T10:03:42.000Z</time>
      </trkpt>
      <trkpt lat="48.69382" lon="1.75832">
        <ele>166</ele>
        <time>2014-08-20T10:03:47.000Z</time>
      </trkpt>
      <trkpt lat="48.69386" lon="1.7583">
        <ele>166</ele>
        <time>2014-08-20T10:03:51.000Z</time>
      </trkpt>
      <trkpt lat="48.69395" lon="1.75829">
        <ele>166.19999694824</ele>
        <time>2014-08-20T10:03:56.000Z</time>
      </trkpt>
      <trkpt lat="48.69404" lon="1.75834">
        <ele>166.60000610352</ele>
        <time>2014-08-20T10:04:02.000Z</time>
      </trkpt>
      <trkpt lat="48.69415" lon="1.75837">
        <ele>166.80000305176</ele>
        <time>2014-08-20T10:04:08.000Z</time>
      </trkpt>
      <trkpt lat="48.69428" lon="1.7585">
        <ele>167.39999389648</ele>
        <time>2014-08-20T10:04:15.000Z</time>
      </trkpt>
      <trkpt lat="48.6943" lon="1.75851">
        <ele>167.60000610352</ele>
        <time>2014-08-20T10:04:16.000Z</time>
      </trkpt>
      <trkpt lat="48.69435" lon="1.75852">
        <ele>167.60000610352</ele>
        <time>2014-08-20T10:04:20.000Z</time>
      </trkpt>
      <trkpt lat="48.69443" lon="1.75847">
        <ele>167.80000305176</ele>
        <time>2014-08-20T10:04:28.000Z</time>
      </trkpt>
      <trkpt lat="48.69452" lon="1.75844">
        <ele>168</ele>
        <time>2014-08-20T10:04:35.000Z</time>
      </trkpt>
      <trkpt lat="48.69458" lon="1.75845">
        <ele>168</ele>
        <time>2014-08-20T10:04:40.000Z</time>
      </trkpt>
      <trkpt lat="48.69466" lon="1.75844">
        <ele>167.80000305176</ele>
        <time>2014-08-20T10:04:48.000Z</time>
      </trkpt>
      <trkpt lat="48.69473" lon="1.75842">
        <ele>167.39999389648</ele>
        <time>2014-08-20T10:04:54.000Z</time>
      </trkpt>
      <trkpt lat="48.69478" lon="1.7584">
        <ele>167.19999694824</ele>
        <time>2014-08-20T10:04:58.000Z</time>
      </trkpt>
      <trkpt lat="48.69487" lon="1.75841">
        <ele>166.80000305176</ele>
        <time>2014-08-20T10:05:05.000Z</time>
      </trkpt>
      <trkpt lat="48.69494" lon="1.75839">
        <ele>166.39999389648</ele>
        <time>2014-08-20T10:05:11.000Z</time>
      </trkpt>
      <trkpt lat="48.69504" lon="1.75841">
        <ele>166.19999694824</ele>
        <time>2014-08-20T10:05:18.000Z</time>
      </trkpt>
      <trkpt lat="48.69509" lon="1.75843">
        <ele>166.19999694824</ele>
        <time>2014-08-20T10:05:21.000Z</time>
      </trkpt>
      <trkpt lat="48.69518" lon="1.75845">
        <ele>166</ele>
        <time>2014-08-20T10:05:29.000Z</time>
      </trkpt>
      <trkpt lat="48.6953" lon="1.75845">
        <ele>165.80000305176</ele>
        <time>2014-08-20T10:05:38.000Z</time>
      </trkpt>
      <trkpt lat="48.69539" lon="1.75845">
        <ele>165.60000610352</ele>
        <time>2014-08-20T10:05:44.000Z</time>
      </trkpt>
      <trkpt lat="48.69548" lon="1.75849">
        <ele>165.60000610352</ele>
        <time>2014-08-20T10:05:49.000Z</time>
      </trkpt>
      <trkpt lat="48.6956" lon="1.75853">
        <ele>166.19999694824</ele>
        <time>2014-08-20T10:05:56.000Z</time>
      </trkpt>
      <trkpt lat="48.69565" lon="1.75857">
        <ele>166.39999389648</ele>
        <time>2014-08-20T10:06:00.000Z</time>
      </trkpt>
      <trkpt lat="48.69572" lon="1.75854">
        <ele>166.39999389648</ele>
        <time>2014-08-20T10:06:05.000Z</time>
      </trkpt>
      <trkpt lat="48.69581" lon="1.75851">
        <ele>166.60000610352</ele>
        <time>2014-08-20T10:06:12.000Z</time>
      </trkpt>
      <trkpt lat="48.69588" lon="1.75851">
        <ele>166.60000610352</ele>
        <time>2014-08-20T10:06:18.000Z</time>
      </trkpt>
      <trkpt lat="48.69595" lon="1.75853">
        <ele>167</ele>
        <time>2014-08-20T10:06:22.000Z</time>
      </trkpt>
      <trkpt lat="48.69606" lon="1.75855">
        <ele>167.19999694824</ele>
        <time>2014-08-20T10:06:29.000Z</time>
      </trkpt>
      <trkpt lat="48.69612" lon="1.75857">
        <ele>167.19999694824</ele>
        <time>2014-08-20T10:06:33.000Z</time>
      </trkpt>
      <trkpt lat="48.6962" lon="1.75859">
        <ele>167</ele>
        <time>2014-08-20T10:06:39.000Z</time>
      </trkpt>
      <trkpt lat="48.69629" lon="1.75863">
        <ele>166.80000305176</ele>
        <time>2014-08-20T10:06:45.000Z</time>
      </trkpt>
      <trkpt lat="48.69637" lon="1.75869">
        <ele>167</ele>
        <time>2014-08-20T10:06:51.000Z</time>
      </trkpt>
      <trkpt lat="48.69645" lon="1.75873">
        <ele>166.80000305176</ele>
        <time>2014-08-20T10:06:57.000Z</time>
      </trkpt>
      <trkpt lat="48.69654" lon="1.75877">
        <ele>166.80000305176</ele>
        <time>2014-08-20T10:07:04.000Z</time>
      </trkpt>
      <trkpt lat="48.69659" lon="1.75886">
        <ele>167</ele>
        <time>2014-08-20T10:07:09.000Z</time>
      </trkpt>
      <trkpt lat="48.69666" lon="1.7589">
        <ele>167</ele>
        <time>2014-08-20T10:07:15.000Z</time>
      </trkpt>
      <trkpt lat="48.69667" lon="1.7589">
        <ele>167</ele>
        <time>2014-08-20T10:07:16.000Z</time>
      </trkpt>
      <trkpt lat="48.69678" lon="1.75899">
        <ele>167</ele>
        <time>2014-08-20T10:07:23.000Z</time>
      </trkpt>
      <trkpt lat="48.69681" lon="1.75901">
        <ele>167</ele>
        <time>2014-08-20T10:07:25.000Z</time>
      </trkpt>
      <trkpt lat="48.69687" lon="1.75904">
        <ele>167</ele>
        <time>2014-08-20T10:07:29.000Z</time>
      </trkpt>
      <trkpt lat="48.69689" lon="1.75904">
        <ele>167</ele>
        <time>2014-08-20T10:07:32.000Z</time>
      </trkpt>
      <trkpt lat="48.69698" lon="1.7591">
        <ele>167.19999694824</ele>
        <time>2014-08-20T10:07:42.000Z</time>
      </trkpt>
      <trkpt lat="48.69708" lon="1.75915">
        <ele>167.19999694824</ele>
        <time>2014-08-20T10:07:47.000Z</time>
      </trkpt>
      <trkpt lat="48.69717" lon="1.75921">
        <ele>167.39999389648</ele>
        <time>2014-08-20T10:07:53.000Z</time>
      </trkpt>
      <trkpt lat="48.69719" lon="1.75921">
        <ele>167.39999389648</ele>
        <time>2014-08-20T10:07:56.000Z</time>
      </trkpt>
      <trkpt lat="48.69727" lon="1.75924">
        <ele>167.39999389648</ele>
        <time>2014-08-20T10:08:03.000Z</time>
      </trkpt>
      <trkpt lat="48.69732" lon="1.75928">
        <ele>167.60000610352</ele>
        <time>2014-08-20T10:08:08.000Z</time>
      </trkpt>
      <trkpt lat="48.6974" lon="1.7593">
        <ele>167.60000610352</ele>
        <time>2014-08-20T10:08:14.000Z</time>
      </trkpt>
      <trkpt lat="48.6975" lon="1.75934">
        <ele>167.60000610352</ele>
        <time>2014-08-20T10:08:22.000Z</time>
      </trkpt>
      <trkpt lat="48.69762" lon="1.75941">
        <ele>167.80000305176</ele>
        <time>2014-08-20T10:08:30.000Z</time>
      </trkpt>
      <trkpt lat="48.69768" lon="1.75943">
        <ele>167.80000305176</ele>
        <time>2014-08-20T10:08:34.000Z</time>
      </trkpt>
      <trkpt lat="48.69772" lon="1.75947">
        <ele>168</ele>
        <time>2014-08-20T10:08:39.000Z</time>
      </trkpt>
      <trkpt lat="48.69775" lon="1.75947">
        <ele>167.80000305176</ele>
        <time>2014-08-20T10:08:41.000Z</time>
      </trkpt>
      <trkpt lat="48.69788" lon="1.75961">
        <ele>168</ele>
        <time>2014-08-20T10:08:51.000Z</time>
      </trkpt>
      <trkpt lat="48.69794" lon="1.75968">
        <ele>168.19999694824</ele>
        <time>2014-08-20T10:08:57.000Z</time>
      </trkpt>
      <trkpt lat="48.69798" lon="1.75972">
        <ele>168.19999694824</ele>
        <time>2014-08-20T10:09:03.000Z</time>
      </trkpt>
      <trkpt lat="48.69806" lon="1.75975">
        <ele>168</ele>
        <time>2014-08-20T10:09:10.000Z</time>
      </trkpt>
      <trkpt lat="48.6981" lon="1.75976">
        <ele>168</ele>
        <time>2014-08-20T10:09:15.000Z</time>
      </trkpt>
      <trkpt lat="48.69815" lon="1.75974">
        <ele>167.80000305176</ele>
        <time>2014-08-20T10:09:21.000Z</time>
      </trkpt>
      <trkpt lat="48.69817" lon="1.75975">
        <ele>167.60000610352</ele>
        <time>2014-08-20T10:09:22.000Z</time>
      </trkpt>
      <trkpt lat="48.69823" lon="1.75983">
        <ele>167.80000305176</ele>
        <time>2014-08-20T10:09:27.000Z</time>
      </trkpt>
      <trkpt lat="48.69823" lon="1.75989">
        <ele>168.19999694824</ele>
        <time>2014-08-20T10:09:34.000Z</time>
      </trkpt>
      <trkpt lat="48.69823" lon="1.75989">
        <ele>168.19999694824</ele>
        <time>2014-08-20T10:09:35.000Z</time>
      </trkpt>
      <trkpt lat="48.69823" lon="1.75988">
        <ele>168.19999694824</ele>
        <time>2014-08-20T10:09:40.000Z</time>
      </trkpt>
      <trkpt lat="48.69828" lon="1.75987">
        <ele>167.80000305176</ele>
        <time>2014-08-20T10:09:52.000Z</time>
      </trkpt>
      <trkpt lat="48.69838" lon="1.75996">
        <ele>168</ele>
        <time>2014-08-20T10:10:00.000Z</time>
      </trkpt>
      <trkpt lat="48.69844" lon="1.76001">
        <ele>168.19999694824</ele>
        <time>2014-08-20T10:10:05.000Z</time>
      </trkpt>
      <trkpt lat="48.69858" lon="1.76012">
        <ele>168.19999694824</ele>
        <time>2014-08-20T10:10:15.000Z</time>
      </trkpt>
      <trkpt lat="48.69871" lon="1.7602">
        <ele>167.60000610352</ele>
        <time>2014-08-20T10:10:23.000Z</time>
      </trkpt>
      <trkpt lat="48.69882" lon="1.76028">
        <ele>167.39999389648</ele>
        <time>2014-08-20T10:10:30.000Z</time>
      </trkpt>
      <trkpt lat="48.69889" lon="1.76033">
        <ele>167.19999694824</ele>
        <time>2014-08-20T10:10:35.000Z</time>
      </trkpt>
      <trkpt lat="48.69894" lon="1.7604">
        <ele>167.19999694824</ele>
        <time>2014-08-20T10:10:42.000Z</time>
      </trkpt>
      <trkpt lat="48.69896" lon="1.76044">
        <ele>167.39999389648</ele>
        <time>2014-08-20T10:10:45.000Z</time>
      </trkpt>
      <trkpt lat="48.699" lon="1.76055">
        <ele>167.60000610352</ele>
        <time>2014-08-20T10:10:51.000Z</time>
      </trkpt>
      <trkpt lat="48.699" lon="1.76057">
        <ele>167.80000305176</ele>
        <time>2014-08-20T10:10:52.000Z</time>
      </trkpt>
      <trkpt lat="48.69903" lon="1.76064">
        <ele>168</ele>
        <time>2014-08-20T10:10:56.000Z</time>
      </trkpt>
      <trkpt lat="48.6991" lon="1.76071">
        <ele>168</ele>
        <time>2014-08-20T10:11:03.000Z</time>
      </trkpt>
      <trkpt lat="48.69921" lon="1.76079">
        <ele>167.60000610352</ele>
        <time>2014-08-20T10:11:09.000Z</time>
      </trkpt>
      <trkpt lat="48.69928" lon="1.76084">
        <ele>167.19999694824</ele>
        <time>2014-08-20T10:11:13.000Z</time>
      </trkpt>
      <trkpt lat="48.69938" lon="1.76092">
        <ele>167</ele>
        <time>2014-08-20T10:11:20.000Z</time>
      </trkpt>
      <trkpt lat="48.69946" lon="1.76096">
        <ele>166.80000305176</ele>
        <time>2014-08-20T10:11:26.000Z</time>
      </trkpt>
      <trkpt lat="48.69952" lon="1.761">
        <ele>166.60000610352</ele>
        <time>2014-08-20T10:11:30.000Z</time>
      </trkpt>
      <trkpt lat="48.69956" lon="1.76106">
        <ele>166.80000305176</ele>
        <time>2014-08-20T10:11:34.000Z</time>
      </trkpt>
      <trkpt lat="48.69963" lon="1.76114">
        <ele>166.80000305176</ele>
        <time>2014-08-20T10:11:40.000Z</time>
      </trkpt>
      <trkpt lat="48.69968" lon="1.76119">
        <ele>166.80000305176</ele>
        <time>2014-08-20T10:11:44.000Z</time>
      </trkpt>
      <trkpt lat="48.69974" lon="1.7613">
        <ele>167</ele>
        <time>2014-08-20T10:11:49.000Z</time>
      </trkpt>
      <trkpt lat="48.69978" lon="1.76137">
        <ele>167.19999694824</ele>
        <time>2014-08-20T10:11:54.000Z</time>
      </trkpt>
      <trkpt lat="48.69985" lon="1.76153">
        <ele>167.60000610352</ele>
        <time>2014-08-20T10:12:02.000Z</time>
      </trkpt>
      <trkpt lat="48.69993" lon="1.76163">
        <ele>167.60000610352</ele>
        <time>2014-08-20T10:12:07.000Z</time>
      </trkpt>
      <trkpt lat="48.69996" lon="1.76166">
        <ele>167.39999389648</ele>
        <time>2014-08-20T10:12:09.000Z</time>
      </trkpt>
      <trkpt lat="48.69998" lon="1.76172">
        <ele>167.39999389648</ele>
        <time>2014-08-20T10:12:14.000Z</time>
      </trkpt>
      <trkpt lat="48.70005" lon="1.76181">
        <ele>167.39999389648</ele>
        <time>2014-08-20T10:12:19.000Z</time>
      </trkpt>
      <trkpt lat="48.70015" lon="1.76187">
        <ele>167</ele>
        <time>2014-08-20T10:12:26.000Z</time>
      </trkpt>
      <trkpt lat="48.70023" lon="1.76192">
        <ele>167</ele>
        <time>2014-08-20T10:12:33.000Z</time>
      </trkpt>
      <trkpt lat="48.70034" lon="1.76196">
        <ele>167</ele>
        <time>2014-08-20T10:12:40.000Z</time>
      </trkpt>
      <trkpt lat="48.70035" lon="1.76197">
        <ele>167</ele>
        <time>2014-08-20T10:12:41.000Z</time>
      </trkpt>
      <trkpt lat="48.7004" lon="1.76202">
        <ele>167.19999694824</ele>
        <time>2014-08-20T10:12:46.000Z</time>
      </trkpt>
      <trkpt lat="48.70042" lon="1.76204">
        <ele>167.19999694824</ele>
        <time>2014-08-20T10:12:48.000Z</time>
      </trkpt>
      <trkpt lat="48.70048" lon="1.76214">
        <ele>167.39999389648</ele>
        <time>2014-08-20T10:12:54.000Z</time>
      </trkpt>
      <trkpt lat="48.70057" lon="1.76219">
        <ele>167.60000610352</ele>
        <time>2014-08-20T10:12:59.000Z</time>
      </trkpt>
      <trkpt lat="48.70066" lon="1.76222">
        <ele>167.60000610352</ele>
        <time>2014-08-20T10:13:05.000Z</time>
      </trkpt>
      <trkpt lat="48.7007" lon="1.76228">
        <ele>167.80000305176</ele>
        <time>2014-08-20T10:13:10.000Z</time>
      </trkpt>
      <trkpt lat="48.70079" lon="1.76235">
        <ele>168</ele>
        <time>2014-08-20T10:13:15.000Z</time>
      </trkpt>
      <trkpt lat="48.70084" lon="1.7624">
        <ele>168</ele>
        <time>2014-08-20T10:13:19.000Z</time>
      </trkpt>
      <trkpt lat="48.70091" lon="1.76252">
        <ele>168.19999694824</ele>
        <time>2014-08-20T10:13:25.000Z</time>
      </trkpt>
      <trkpt lat="48.70098" lon="1.76266">
        <ele>168.39999389648</ele>
        <time>2014-08-20T10:13:32.000Z</time>
      </trkpt>
      <trkpt lat="48.70104" lon="1.76285">
        <ele>168.60000610352</ele>
        <time>2014-08-20T10:13:41.000Z</time>
      </trkpt>
      <trkpt lat="48.70104" lon="1.76291">
        <ele>168.60000610352</ele>
        <time>2014-08-20T10:13:44.000Z</time>
      </trkpt>
      <trkpt lat="48.70107" lon="1.76305">
        <ele>168.80000305176</ele>
        <time>2014-08-20T10:13:51.000Z</time>
      </trkpt>
      <trkpt lat="48.70108" lon="1.76306">
        <ele>168.80000305176</ele>
        <time>2014-08-20T10:13:52.000Z</time>
      </trkpt>
      <trkpt lat="48.70115" lon="1.7631">
        <ele>169</ele>
        <time>2014-08-20T10:13:59.000Z</time>
      </trkpt>
      <trkpt lat="48.70128" lon="1.76316">
        <ele>169.19999694824</ele>
        <time>2014-08-20T10:14:07.000Z</time>
      </trkpt>
      <trkpt lat="48.70134" lon="1.76318">
        <ele>169.39999389648</ele>
        <time>2014-08-20T10:14:12.000Z</time>
      </trkpt>
      <trkpt lat="48.70136" lon="1.76317">
        <ele>169.39999389648</ele>
        <time>2014-08-20T10:14:14.000Z</time>
      </trkpt>
      <trkpt lat="48.70144" lon="1.76321">
        <ele>169.39999389648</ele>
        <time>2014-08-20T10:14:18.000Z</time>
      </trkpt>
      <trkpt lat="48.70152" lon="1.76323">
        <ele>169.60000610352</ele>
        <time>2014-08-20T10:14:23.000Z</time>
      </trkpt>
      <trkpt lat="48.70162" lon="1.76325">
        <ele>169.80000305176</ele>
        <time>2014-08-20T10:14:28.000Z</time>
      </trkpt>
      <trkpt lat="48.70171" lon="1.76324">
        <ele>170</ele>
        <time>2014-08-20T10:14:35.000Z</time>
      </trkpt>
      <trkpt lat="48.70174" lon="1.76323">
        <ele>169.80000305176</ele>
        <time>2014-08-20T10:14:38.000Z</time>
      </trkpt>
      <trkpt lat="48.70182" lon="1.76331">
        <ele>170.19999694824</ele>
        <time>2014-08-20T10:14:44.000Z</time>
      </trkpt>
      <trkpt lat="48.70191" lon="1.76335">
        <ele>170.60000610352</ele>
        <time>2014-08-20T10:14:52.000Z</time>
      </trkpt>
      <trkpt lat="48.702" lon="1.76339">
        <ele>170.60000610352</ele>
        <time>2014-08-20T10:14:58.000Z</time>
      </trkpt>
      <trkpt lat="48.70207" lon="1.76344">
        <ele>170.80000305176</ele>
        <time>2014-08-20T10:15:04.000Z</time>
      </trkpt>
      <trkpt lat="48.70215" lon="1.76351">
        <ele>171</ele>
        <time>2014-08-20T10:15:10.000Z</time>
      </trkpt>
      <trkpt lat="48.70228" lon="1.76363">
        <ele>171.60000610352</ele>
        <time>2014-08-20T10:15:17.000Z</time>
      </trkpt>
      <trkpt lat="48.70236" lon="1.76373">
        <ele>171.80000305176</ele>
        <time>2014-08-20T10:15:23.000Z</time>
      </trkpt>
      <trkpt lat="48.70246" lon="1.7639">
        <ele>172.39999389648</ele>
        <time>2014-08-20T10:15:32.000Z</time>
      </trkpt>
      <trkpt lat="48.70248" lon="1.76394">
        <ele>172.60000610352</ele>
        <time>2014-08-20T10:15:35.000Z</time>
      </trkpt>
      <trkpt lat="48.7025" lon="1.76403">
        <ele>173</ele>
        <time>2014-08-20T10:15:39.000Z</time>
      </trkpt>
      <trkpt lat="48.70252" lon="1.76411">
        <ele>173.19999694824</ele>
        <time>2014-08-20T10:15:42.000Z</time>
      </trkpt>
      <trkpt lat="48.70254" lon="1.76415">
        <ele>173.39999389648</ele>
        <time>2014-08-20T10:15:44.000Z</time>
      </trkpt>
      <trkpt lat="48.70255" lon="1.76415">
        <ele>173.39999389648</ele>
        <time>2014-08-20T10:15:46.000Z</time>
      </trkpt>
      <trkpt lat="48.70256" lon="1.7641">
        <ele>173.19999694824</ele>
        <time>2014-08-20T10:15:49.000Z</time>
      </trkpt>
      <trkpt lat="48.70263" lon="1.76413">
        <ele>173.19999694824</ele>
        <time>2014-08-20T10:15:56.000Z</time>
      </trkpt>
      <trkpt lat="48.70267" lon="1.76413">
        <ele>173.39999389648</ele>
        <time>2014-08-20T10:16:00.000Z</time>
      </trkpt>
      <trkpt lat="48.70272" lon="1.76414">
        <ele>173.39999389648</ele>
        <time>2014-08-20T10:16:05.000Z</time>
      </trkpt>
      <trkpt lat="48.70283" lon="1.76415">
        <ele>173.60000610352</ele>
        <time>2014-08-20T10:16:11.000Z</time>
      </trkpt>
      <trkpt lat="48.70291" lon="1.76413">
        <ele>173.80000305176</ele>
        <time>2014-08-20T10:16:17.000Z</time>
      </trkpt>
      <trkpt lat="48.70294" lon="1.76413">
        <ele>173.80000305176</ele>
        <time>2014-08-20T10:16:19.000Z</time>
      </trkpt>
      <trkpt lat="48.70301" lon="1.76419">
        <ele>174.19999694824</ele>
        <time>2014-08-20T10:16:23.000Z</time>
      </trkpt>
      <trkpt lat="48.70311" lon="1.76421">
        <ele>174.60000610352</ele>
        <time>2014-08-20T10:16:30.000Z</time>
      </trkpt>
      <trkpt lat="48.70313" lon="1.76419">
        <ele>174.60000610352</ele>
        <time>2014-08-20T10:16:32.000Z</time>
      </trkpt>
      <trkpt lat="48.70316" lon="1.76412">
        <ele>174.39999389648</ele>
        <time>2014-08-20T10:16:39.000Z</time>
      </trkpt>
      <trkpt lat="48.70319" lon="1.76408">
        <ele>174.19999694824</ele>
        <time>2014-08-20T10:16:43.000Z</time>
      </trkpt>
      <trkpt lat="48.70324" lon="1.76403">
        <ele>174.19999694824</ele>
        <time>2014-08-20T10:16:50.000Z</time>
      </trkpt>
      <trkpt lat="48.70333" lon="1.76403">
        <ele>174.39999389648</ele>
        <time>2014-08-20T10:16:54.000Z</time>
      </trkpt>
      <trkpt lat="48.70338" lon="1.76406">
        <ele>174.80000305176</ele>
        <time>2014-08-20T10:16:57.000Z</time>
      </trkpt>
      <trkpt lat="48.7035" lon="1.76407">
        <ele>175</ele>
        <time>2014-08-20T10:17:03.000Z</time>
      </trkpt>
      <trkpt lat="48.70359" lon="1.76403">
        <ele>175.19999694824</ele>
        <time>2014-08-20T10:17:10.000Z</time>
      </trkpt>
      <trkpt lat="48.70362" lon="1.76403">
        <ele>175.19999694824</ele>
        <time>2014-08-20T10:17:12.000Z</time>
      </trkpt>
      <trkpt lat="48.70372" lon="1.76402">
        <ele>175.60000610352</ele>
        <time>2014-08-20T10:17:19.000Z</time>
      </trkpt>
      <trkpt lat="48.70378" lon="1.76399">
        <ele>175.60000610352</ele>
        <time>2014-08-20T10:17:24.000Z</time>
      </trkpt>
      <trkpt lat="48.70385" lon="1.76394">
        <ele>175.60000610352</ele>
        <time>2014-08-20T10:17:31.000Z</time>
      </trkpt>
      <trkpt lat="48.70388" lon="1.76392">
        <ele>175.60000610352</ele>
        <time>2014-08-20T10:17:34.000Z</time>
      </trkpt>
      <trkpt lat="48.70399" lon="1.76386">
        <ele>175.80000305176</ele>
        <time>2014-08-20T10:17:41.000Z</time>
      </trkpt>
      <trkpt lat="48.70404" lon="1.76383">
        <ele>175.80000305176</ele>
        <time>2014-08-20T10:17:46.000Z</time>
      </trkpt>
      <trkpt lat="48.70406" lon="1.76383">
        <ele>175.80000305176</ele>
        <time>2014-08-20T10:17:48.000Z</time>
      </trkpt>
      <trkpt lat="48.70413" lon="1.76383">
        <ele>176</ele>
        <time>2014-08-20T10:17:51.000Z</time>
      </trkpt>
      <trkpt lat="48.70421" lon="1.76378">
        <ele>176.19999694824</ele>
        <time>2014-08-20T10:17:58.000Z</time>
      </trkpt>
      <trkpt lat="48.70425" lon="1.76377">
        <ele>176.19999694824</ele>
        <time>2014-08-20T10:18:02.000Z</time>
      </trkpt>
      <trkpt lat="48.70434" lon="1.76374">
        <ele>176.39999389648</ele>
        <time>2014-08-20T10:18:08.000Z</time>
      </trkpt>
      <trkpt lat="48.70445" lon="1.76367">
        <ele>176</ele>
        <time>2014-08-20T10:18:14.000Z</time>
      </trkpt>
      <trkpt lat="48.70449" lon="1.76359">
        <ele>175.39999389648</ele>
        <time>2014-08-20T10:18:21.000Z</time>
      </trkpt>
      <trkpt lat="48.70448" lon="1.76352">
        <ele>175</ele>
        <time>2014-08-20T10:18:25.000Z</time>
      </trkpt>
      <trkpt lat="48.70451" lon="1.76344">
        <ele>174.60000610352</ele>
        <time>2014-08-20T10:18:30.000Z</time>
      </trkpt>
      <trkpt lat="48.70446" lon="1.76334">
        <ele>174.19999694824</ele>
        <time>2014-08-20T10:18:37.000Z</time>
      </trkpt>
      <trkpt lat="48.70443" lon="1.76321">
        <ele>173.80000305176</ele>
        <time>2014-08-20T10:18:42.000Z</time>
      </trkpt>
      <trkpt lat="48.70439" lon="1.76311">
        <ele>174</ele>
        <time>2014-08-20T10:18:48.000Z</time>
      </trkpt>
      <trkpt lat="48.70438" lon="1.76301">
        <ele>174</ele>
        <time>2014-08-20T10:18:53.000Z</time>
      </trkpt>
      <trkpt lat="48.70445" lon="1.76286">
        <ele>173.60000610352</ele>
        <time>2014-08-20T10:18:58.000Z</time>
      </trkpt>
      <trkpt lat="48.70451" lon="1.76275">
        <ele>173.39999389648</ele>
        <time>2014-08-20T10:19:03.000Z</time>
      </trkpt>
      <trkpt lat="48.70461" lon="1.76253">
        <ele>172.80000305176</ele>
        <time>2014-08-20T10:19:12.000Z</time>
      </trkpt>
      <trkpt lat="48.70464" lon="1.76248">
        <ele>172.60000610352</ele>
        <time>2014-08-20T10:19:15.000Z</time>
      </trkpt>
      <trkpt lat="48.70467" lon="1.76235">
        <ele>172.19999694824</ele>
        <time>2014-08-20T10:19:21.000Z</time>
      </trkpt>
      <trkpt lat="48.70467" lon="1.76233">
        <ele>172.19999694824</ele>
        <time>2014-08-20T10:19:22.000Z</time>
      </trkpt>
      <trkpt lat="48.70467" lon="1.76226">
        <ele>172.39999389648</ele>
        <time>2014-08-20T10:19:27.000Z</time>
      </trkpt>
      <trkpt lat="48.70466" lon="1.76222">
        <ele>172.60000610352</ele>
        <time>2014-08-20T10:19:29.000Z</time>
      </trkpt>
      <trkpt lat="48.7046" lon="1.7621">
        <ele>173.19999694824</ele>
        <time>2014-08-20T10:19:35.000Z</time>
      </trkpt>
      <trkpt lat="48.70459" lon="1.762">
        <ele>173.60000610352</ele>
        <time>2014-08-20T10:19:39.000Z</time>
      </trkpt>
      <trkpt lat="48.70457" lon="1.76185">
        <ele>174</ele>
        <time>2014-08-20T10:19:46.000Z</time>
      </trkpt>
      <trkpt lat="48.70456" lon="1.76181">
        <ele>174.19999694824</ele>
        <time>2014-08-20T10:19:48.000Z</time>
      </trkpt>
      <trkpt lat="48.70458" lon="1.76175">
        <ele>174.19999694824</ele>
        <time>2014-08-20T10:19:51.000Z</time>
      </trkpt>
      <trkpt lat="48.70458" lon="1.76171">
        <ele>174.39999389648</ele>
        <time>2014-08-20T10:19:53.000Z</time>
      </trkpt>
      <trkpt lat="48.70459" lon="1.76158">
        <ele>174.80000305176</ele>
        <time>2014-08-20T10:19:59.000Z</time>
      </trkpt>
      <trkpt lat="48.7046" lon="1.76147">
        <ele>175</ele>
        <time>2014-08-20T10:20:04.000Z</time>
      </trkpt>
      <trkpt lat="48.70457" lon="1.76126">
        <ele>175.39999389648</ele>
        <time>2014-08-20T10:20:13.000Z</time>
      </trkpt>
      <trkpt lat="48.70454" lon="1.76118">
        <ele>175.60000610352</ele>
        <time>2014-08-20T10:20:17.000Z</time>
      </trkpt>
      <trkpt lat="48.70455" lon="1.76098">
        <ele>175.80000305176</ele>
        <time>2014-08-20T10:20:25.000Z</time>
      </trkpt>
      <trkpt lat="48.70457" lon="1.76083">
        <ele>175.80000305176</ele>
        <time>2014-08-20T10:20:31.000Z</time>
      </trkpt>
      <trkpt lat="48.70463" lon="1.76069">
        <ele>175.80000305176</ele>
        <time>2014-08-20T10:20:38.000Z</time>
      </trkpt>
      <trkpt lat="48.70468" lon="1.76054">
        <ele>176.19999694824</ele>
        <time>2014-08-20T10:20:45.000Z</time>
      </trkpt>
      <trkpt lat="48.70471" lon="1.76043">
        <ele>176.80000305176</ele>
        <time>2014-08-20T10:20:52.000Z</time>
      </trkpt>
      <trkpt lat="48.70479" lon="1.76029">
        <ele>177</ele>
        <time>2014-08-20T10:21:00.000Z</time>
      </trkpt>
      <trkpt lat="48.70484" lon="1.76017">
        <ele>177.60000610352</ele>
        <time>2014-08-20T10:21:06.000Z</time>
      </trkpt>
      <trkpt lat="48.70487" lon="1.7601">
        <ele>177.80000305176</ele>
        <time>2014-08-20T10:21:12.000Z</time>
      </trkpt>
      <trkpt lat="48.70484" lon="1.76003">
        <ele>178.39999389648</ele>
        <time>2014-08-20T10:21:16.000Z</time>
      </trkpt>
      <trkpt lat="48.70486" lon="1.75984">
        <ele>179.19999694824</ele>
        <time>2014-08-20T10:21:24.000Z</time>
      </trkpt>
      <trkpt lat="48.70495" lon="1.7597">
        <ele>179.19999694824</ele>
        <time>2014-08-20T10:21:31.000Z</time>
      </trkpt>
      <trkpt lat="48.705" lon="1.75958">
        <ele>179.39999389648</ele>
        <time>2014-08-20T10:21:38.000Z</time>
      </trkpt>
      <trkpt lat="48.70501" lon="1.75957">
        <ele>179.39999389648</ele>
        <time>2014-08-20T10:21:39.000Z</time>
      </trkpt>
      <trkpt lat="48.70505" lon="1.75961">
        <ele>179.19999694824</ele>
        <time>2014-08-20T10:21:43.000Z</time>
      </trkpt>
      <trkpt lat="48.70506" lon="1.75963">
        <ele>179.19999694824</ele>
        <time>2014-08-20T10:21:46.000Z</time>
      </trkpt>
      <trkpt lat="48.70504" lon="1.75972">
        <ele>178.80000305176</ele>
        <time>2014-08-20T10:21:55.000Z</time>
      </trkpt>
      <trkpt lat="48.70505" lon="1.75976">
        <ele>178.60000610352</ele>
        <time>2014-08-20T10:22:00.000Z</time>
      </trkpt>
      <trkpt lat="48.705" lon="1.75971">
        <ele>179</ele>
        <time>2014-08-20T10:22:14.000Z</time>
      </trkpt>
      <trkpt lat="48.70501" lon="1.75969">
        <ele>179</ele>
        <time>2014-08-20T10:22:15.000Z</time>
      </trkpt>
      <trkpt lat="48.70507" lon="1.75958">
        <ele>179.39999389648</ele>
        <time>2014-08-20T10:22:20.000Z</time>
      </trkpt>
      <trkpt lat="48.70512" lon="1.75949">
        <ele>179.80000305176</ele>
        <time>2014-08-20T10:22:26.000Z</time>
      </trkpt>
      <trkpt lat="48.70516" lon="1.75942">
        <ele>180.19999694824</ele>
        <time>2014-08-20T10:22:31.000Z</time>
      </trkpt>
      <trkpt lat="48.70517" lon="1.75938">
        <ele>180.39999389648</ele>
        <time>2014-08-20T10:22:36.000Z</time>
      </trkpt>
      <trkpt lat="48.70519" lon="1.75936">
        <ele>180.39999389648</ele>
        <time>2014-08-20T10:22:38.000Z</time>
      </trkpt>
      <trkpt lat="48.70525" lon="1.7592">
        <ele>181</ele>
        <time>2014-08-20T10:22:45.000Z</time>
      </trkpt>
      <trkpt lat="48.70527" lon="1.75905">
        <ele>181.39999389648</ele>
        <time>2014-08-20T10:22:52.000Z</time>
      </trkpt>
      <trkpt lat="48.70526" lon="1.75896">
        <ele>181.80000305176</ele>
        <time>2014-08-20T10:22:56.000Z</time>
      </trkpt>
      <trkpt lat="48.70529" lon="1.75881">
        <ele>182</ele>
        <time>2014-08-20T10:23:04.000Z</time>
      </trkpt>
      <trkpt lat="48.70535" lon="1.75868">
        <ele>181.80000305176</ele>
        <time>2014-08-20T10:23:11.000Z</time>
      </trkpt>
      <trkpt lat="48.70541" lon="1.75858">
        <ele>181.60000610352</ele>
        <time>2014-08-20T10:23:17.000Z</time>
      </trkpt>
      <trkpt lat="48.70542" lon="1.75855">
        <ele>181.60000610352</ele>
        <time>2014-08-20T10:23:19.000Z</time>
      </trkpt>
      <trkpt lat="48.70548" lon="1.7584">
        <ele>181.19999694824</ele>
        <time>2014-08-20T10:23:27.000Z</time>
      </trkpt>
      <trkpt lat="48.70554" lon="1.75831">
        <ele>180.39999389648</ele>
        <time>2014-08-20T10:23:32.000Z</time>
      </trkpt>
      <trkpt lat="48.70558" lon="1.7582">
        <ele>180</ele>
        <time>2014-08-20T10:23:38.000Z</time>
      </trkpt>
      <trkpt lat="48.70562" lon="1.7581">
        <ele>179.60000610352</ele>
        <time>2014-08-20T10:23:44.000Z</time>
      </trkpt>
      <trkpt lat="48.70564" lon="1.75807">
        <ele>179.39999389648</ele>
        <time>2014-08-20T10:23:45.000Z</time>
      </trkpt>
      <trkpt lat="48.70575" lon="1.75797">
        <ele>178.39999389648</ele>
        <time>2014-08-20T10:23:53.000Z</time>
      </trkpt>
      <trkpt lat="48.70583" lon="1.75787">
        <ele>178</ele>
        <time>2014-08-20T10:24:00.000Z</time>
      </trkpt>
      <trkpt lat="48.70594" lon="1.75775">
        <ele>178</ele>
        <time>2014-08-20T10:24:09.000Z</time>
      </trkpt>
      <trkpt lat="48.70602" lon="1.75764">
        <ele>177.80000305176</ele>
        <time>2014-08-20T10:24:17.000Z</time>
      </trkpt>
      <trkpt lat="48.70608" lon="1.75755">
        <ele>178</ele>
        <time>2014-08-20T10:24:24.000Z</time>
      </trkpt>
      <trkpt lat="48.70619" lon="1.75743">
        <ele>178</ele>
        <time>2014-08-20T10:24:33.000Z</time>
      </trkpt>
      <trkpt lat="48.7063" lon="1.75727">
        <ele>178.19999694824</ele>
        <time>2014-08-20T10:24:44.000Z</time>
      </trkpt>
      <trkpt lat="48.70634" lon="1.75721">
        <ele>178.39999389648</ele>
        <time>2014-08-20T10:24:48.000Z</time>
      </trkpt>
      <trkpt lat="48.70636" lon="1.75716">
        <ele>178.60000610352</ele>
        <time>2014-08-20T10:24:53.000Z</time>
      </trkpt>
      <trkpt lat="48.70631" lon="1.75716">
        <ele>179</ele>
        <time>2014-08-20T10:24:59.000Z</time>
      </trkpt>
      <trkpt lat="48.70633" lon="1.75712">
        <ele>179.19999694824</ele>
        <time>2014-08-20T10:25:09.000Z</time>
      </trkpt>
      <trkpt lat="48.70631" lon="1.75708">
        <ele>179.39999389648</ele>
        <time>2014-08-20T10:25:43.000Z</time>
      </trkpt>
      <trkpt lat="48.70638" lon="1.75702">
        <ele>179.60000610352</ele>
        <time>2014-08-20T10:25:48.000Z</time>
      </trkpt>
      <trkpt lat="48.70641" lon="1.75695">
        <ele>179.80000305176</ele>
        <time>2014-08-20T10:25:54.000Z</time>
      </trkpt>
      <trkpt lat="48.70646" lon="1.75686">
        <ele>179.60000610352</ele>
        <time>2014-08-20T10:26:02.000Z</time>
      </trkpt>
      <trkpt lat="48.70648" lon="1.75679">
        <ele>179.39999389648</ele>
        <time>2014-08-20T10:26:08.000Z</time>
      </trkpt>
      <trkpt lat="48.70649" lon="1.75679">
        <ele>179.19999694824</ele>
        <time>2014-08-20T10:26:10.000Z</time>
      </trkpt>
      <trkpt lat="48.70648" lon="1.75677">
        <ele>179.39999389648</ele>
        <time>2014-08-20T10:26:59.000Z</time>
      </trkpt>
      <trkpt lat="48.70649" lon="1.75678">
        <ele>179.19999694824</ele>
        <time>2014-08-20T10:27:03.000Z</time>
      </trkpt>
      <trkpt lat="48.70645" lon="1.75691">
        <ele>179.60000610352</ele>
        <time>2014-08-20T10:28:35.000Z</time>
      </trkpt>
      <trkpt lat="48.70641" lon="1.75678">
        <ele>180.19999694824</ele>
        <time>2014-08-20T10:28:48.000Z</time>
      </trkpt>
      <trkpt lat="48.70642" lon="1.75678">
        <ele>180.19999694824</ele>
        <time>2014-08-20T10:28:50.000Z</time>
      </trkpt>
      <trkpt lat="48.7064" lon="1.75672">
        <ele>180.39999389648</ele>
        <time>2014-08-20T10:29:05.000Z</time>
      </trkpt>
      <trkpt lat="48.70644" lon="1.75668">
        <ele>180</ele>
        <time>2014-08-20T10:29:09.000Z</time>
      </trkpt>
      <trkpt lat="48.70642" lon="1.75676">
        <ele>180</ele>
        <time>2014-08-20T10:29:34.000Z</time>
      </trkpt>
      <trkpt lat="48.70641" lon="1.75675">
        <ele>180.19999694824</ele>
        <time>2014-08-20T10:29:37.000Z</time>
      </trkpt>
      <trkpt lat="48.70639" lon="1.75681">
        <ele>180.39999389648</ele>
        <time>2014-08-20T10:30:03.000Z</time>
      </trkpt>
      <trkpt lat="48.70639" lon="1.75679">
        <ele>180.39999389648</ele>
        <time>2014-08-20T10:30:10.000Z</time>
      </trkpt>
      <trkpt lat="48.70639" lon="1.75678">
        <ele>180.39999389648</ele>
        <time>2014-08-20T10:30:15.000Z</time>
      </trkpt>
      <trkpt lat="48.70657" lon="1.75667">
        <ele>178.39999389648</ele>
        <time>2014-08-20T10:30:43.000Z</time>
      </trkpt>
      <trkpt lat="48.70654" lon="1.75669">
        <ele>178.80000305176</ele>
        <time>2014-08-20T10:30:53.000Z</time>
      </trkpt>
      <trkpt lat="48.7065" lon="1.75667">
        <ele>179.19999694824</ele>
        <time>2014-08-20T10:30:57.000Z</time>
      </trkpt>
      <trkpt lat="48.70646" lon="1.75669">
        <ele>179.60000610352</ele>
        <time>2014-08-20T10:31:01.000Z</time>
      </trkpt>
      <trkpt lat="48.70646" lon="1.7567">
        <ele>179.60000610352</ele>
        <time>2014-08-20T10:31:02.000Z</time>
      </trkpt>
      <trkpt lat="48.70646" lon="1.75684">
        <ele>179.60000610352</ele>
        <time>2014-08-20T10:31:46.000Z</time>
      </trkpt>
      <trkpt lat="48.7064" lon="1.75689">
        <ele>180.19999694824</ele>
        <time>2014-08-20T10:32:11.000Z</time>
      </trkpt>
      <trkpt lat="48.70641" lon="1.75691">
        <ele>180</ele>
        <time>2014-08-20T10:32:29.000Z</time>
      </trkpt>
      <trkpt lat="48.70641" lon="1.7569">
        <ele>180</ele>
        <time>2014-08-20T10:32:32.000Z</time>
      </trkpt>
      <trkpt lat="48.70645" lon="1.75688">
        <ele>179.60000610352</ele>
        <time>2014-08-20T10:32:44.000Z</time>
      </trkpt>
      <trkpt lat="48.70647" lon="1.75681">
        <ele>179.39999389648</ele>
        <time>2014-08-20T10:32:47.000Z</time>
      </trkpt>
      <trkpt lat="48.70646" lon="1.75681">
        <ele>179.60000610352</ele>
        <time>2014-08-20T10:32:49.000Z</time>
      </trkpt>
      <trkpt lat="48.70638" lon="1.75674">
        <ele>180.60000610352</ele>
        <time>2014-08-20T10:33:09.000Z</time>
      </trkpt>
      <trkpt lat="48.70639" lon="1.75674">
        <ele>180.39999389648</ele>
        <time>2014-08-20T10:33:22.000Z</time>
      </trkpt>
      <trkpt lat="48.70639" lon="1.75672">
        <ele>180.60000610352</ele>
        <time>2014-08-20T10:33:25.000Z</time>
      </trkpt>
      <trkpt lat="48.7064" lon="1.75676">
        <ele>180.39999389648</ele>
        <time>2014-08-20T10:33:35.000Z</time>
      </trkpt>
      <trkpt lat="48.70642" lon="1.7567">
        <ele>180.19999694824</ele>
        <time>2014-08-20T10:33:52.000Z</time>
      </trkpt>
      <trkpt lat="48.70646" lon="1.75669">
        <ele>179.80000305176</ele>
        <time>2014-08-20T10:33:58.000Z</time>
      </trkpt>
      <trkpt lat="48.70643" lon="1.75633">
        <ele>179.60000610352</ele>
        <time>2014-08-20T10:35:12.000Z</time>
      </trkpt>
      <trkpt lat="48.70643" lon="1.75633">
        <ele>179.80000305176</ele>
        <time>2014-08-20T10:35:13.000Z</time>
      </trkpt>
      <trkpt lat="48.70637" lon="1.75631">
        <ele>180.39999389648</ele>
        <time>2014-08-20T10:35:20.000Z</time>
      </trkpt>
      <trkpt lat="48.7064" lon="1.75622">
        <ele>179.80000305176</ele>
        <time>2014-08-20T10:35:24.000Z</time>
      </trkpt>
      <trkpt lat="48.70645" lon="1.75613">
        <ele>179</ele>
        <time>2014-08-20T10:35:29.000Z</time>
      </trkpt>
      <trkpt lat="48.70646" lon="1.7561">
        <ele>179</ele>
        <time>2014-08-20T10:35:31.000Z</time>
      </trkpt>
      <trkpt lat="48.70649" lon="1.75597">
        <ele>178.60000610352</ele>
        <time>2014-08-20T10:35:38.000Z</time>
      </trkpt>
      <trkpt lat="48.70652" lon="1.75589">
        <ele>178.39999389648</ele>
        <time>2014-08-20T10:35:43.000Z</time>
      </trkpt>
      <trkpt lat="48.70656" lon="1.75582">
        <ele>178</ele>
        <time>2014-08-20T10:35:49.000Z</time>
      </trkpt>
      <trkpt lat="48.70662" lon="1.75573">
        <ele>177.39999389648</ele>
        <time>2014-08-20T10:35:55.000Z</time>
      </trkpt>
      <trkpt lat="48.70664" lon="1.7557">
        <ele>177</ele>
        <time>2014-08-20T10:35:57.000Z</time>
      </trkpt>
      <trkpt lat="48.70675" lon="1.75556">
        <ele>174.80000305176</ele>
        <time>2014-08-20T10:36:06.000Z</time>
      </trkpt>
      <trkpt lat="48.70678" lon="1.75552">
        <ele>174.60000610352</ele>
        <time>2014-08-20T10:36:09.000Z</time>
      </trkpt>
      <trkpt lat="48.7068" lon="1.75545">
        <ele>174.39999389648</ele>
        <time>2014-08-20T10:36:15.000Z</time>
      </trkpt>
      <trkpt lat="48.70681" lon="1.75543">
        <ele>174.39999389648</ele>
        <time>2014-08-20T10:36:16.000Z</time>
      </trkpt>
      <trkpt lat="48.70687" lon="1.75529">
        <ele>174</ele>
        <time>2014-08-20T10:36:23.000Z</time>
      </trkpt>
      <trkpt lat="48.70688" lon="1.75527">
        <ele>173.80000305176</ele>
        <time>2014-08-20T10:36:24.000Z</time>
      </trkpt>
      <trkpt lat="48.70691" lon="1.75521">
        <ele>173.60000610352</ele>
        <time>2014-08-20T10:36:27.000Z</time>
      </trkpt>
      <trkpt lat="48.70692" lon="1.75511">
        <ele>173.39999389648</ele>
        <time>2014-08-20T10:36:34.000Z</time>
      </trkpt>
      <trkpt lat="48.70689" lon="1.75518">
        <ele>173.60000610352</ele>
        <time>2014-08-20T10:36:40.000Z</time>
      </trkpt>
      <trkpt lat="48.70689" lon="1.75518">
        <ele>173.60000610352</ele>
        <time>2014-08-20T10:36:42.000Z</time>
      </trkpt>
      <trkpt lat="48.70694" lon="1.75502">
        <ele>173</ele>
        <time>2014-08-20T10:36:56.000Z</time>
      </trkpt>
      <trkpt lat="48.707" lon="1.75484">
        <ele>172.60000610352</ele>
        <time>2014-08-20T10:37:04.000Z</time>
      </trkpt>
      <trkpt lat="48.70701" lon="1.75481">
        <ele>172.60000610352</ele>
        <time>2014-08-20T10:37:08.000Z</time>
      </trkpt>
      <trkpt lat="48.70703" lon="1.75453">
        <ele>171.80000305176</ele>
        <time>2014-08-20T10:37:58.000Z</time>
      </trkpt>
      <trkpt lat="48.70708" lon="1.75453">
        <ele>171.60000610352</ele>
        <time>2014-08-20T10:38:03.000Z</time>
      </trkpt>
    </trkseg>
  </trk>
</gpx>